<?xml version="1.0" encoding="UTF-8" standalone="no" ?>
<gpx xmlns="http://www.topografix.com/GPX/1/1" xmlns:xsi="http://www.w3.org/2001/XMLSchema-instance" xsi:schemaLocation="http://www.topografix.com/GPX/1/1 http://www.topografix.com/GPX/1/1/gpx.xsd" version="1.1" creator="VisuGPX - https://www.visugpx.com">
  <metadata>
    <name>5-2 AM L'Hom à Pont du Tarn</name>
  </metadata>
  <trk>
    <name><![CDATA[5-2-am-l-hom-a-pont-du-tarn]]></name>
    <trkseg>
      <trkpt lat="44.22552" lon="3.51388">
        <ele>1081</ele>
        <time>2020-01-04T18:42:31Z</time>
      </trkpt>
      <trkpt lat="44.22557" lon="3.51393">
        <ele>1081</ele>
        <time>2020-01-04T18:42:32Z</time>
      </trkpt>
      <trkpt lat="44.22566" lon="3.5141">
        <ele>1081</ele>
        <time>2020-01-04T18:42:36Z</time>
      </trkpt>
      <trkpt lat="44.22572" lon="3.51434">
        <ele>1079</ele>
        <time>2020-01-04T18:42:40Z</time>
      </trkpt>
      <trkpt lat="44.22585" lon="3.51464">
        <ele>1077</ele>
        <time>2020-01-04T18:42:46Z</time>
      </trkpt>
      <trkpt lat="44.22596" lon="3.51507">
        <ele>1074</ele>
        <time>2020-01-04T18:42:54Z</time>
      </trkpt>
      <trkpt lat="44.226" lon="3.51515">
        <ele>1073</ele>
        <time>2020-01-04T18:42:55Z</time>
      </trkpt>
      <trkpt lat="44.22617" lon="3.5153">
        <ele>1073</ele>
        <time>2020-01-04T18:43:00Z</time>
      </trkpt>
      <trkpt lat="44.22626" lon="3.51543">
        <ele>1072</ele>
        <time>2020-01-04T18:43:03Z</time>
      </trkpt>
      <trkpt lat="44.22632" lon="3.51558">
        <ele>1070</ele>
        <time>2020-01-04T18:43:06Z</time>
      </trkpt>
      <trkpt lat="44.22634" lon="3.51571">
        <ele>1069</ele>
        <time>2020-01-04T18:43:08Z</time>
      </trkpt>
      <trkpt lat="44.2263" lon="3.51584">
        <ele>1067</ele>
        <time>2020-01-04T18:43:10Z</time>
      </trkpt>
      <trkpt lat="44.2263" lon="3.51593">
        <ele>1066</ele>
        <time>2020-01-04T18:43:12Z</time>
      </trkpt>
      <trkpt lat="44.22634" lon="3.51603">
        <ele>1066</ele>
        <time>2020-01-04T18:43:14Z</time>
      </trkpt>
      <trkpt lat="44.22645" lon="3.51614">
        <ele>1065</ele>
        <time>2020-01-04T18:43:17Z</time>
      </trkpt>
      <trkpt lat="44.2266" lon="3.51642">
        <ele>1064</ele>
        <time>2020-01-04T18:43:23Z</time>
      </trkpt>
      <trkpt lat="44.22664" lon="3.51661">
        <ele>1062</ele>
        <time>2020-01-04T18:43:26Z</time>
      </trkpt>
      <trkpt lat="44.22688" lon="3.51732">
        <ele>1063</ele>
        <time>2020-01-04T18:43:39Z</time>
      </trkpt>
      <trkpt lat="44.2269" lon="3.51753">
        <ele>1063</ele>
        <time>2020-01-04T18:43:43Z</time>
      </trkpt>
      <trkpt lat="44.22702" lon="3.5179">
        <ele>1064</ele>
        <time>2020-01-04T18:43:50Z</time>
      </trkpt>
      <trkpt lat="44.22712" lon="3.51846">
        <ele>1065</ele>
        <time>2020-01-04T18:43:59Z</time>
      </trkpt>
      <trkpt lat="44.22733" lon="3.51884">
        <ele>1065</ele>
        <time>2020-01-04T18:44:07Z</time>
      </trkpt>
      <trkpt lat="44.2275" lon="3.51904">
        <ele>1065</ele>
        <time>2020-01-04T18:44:13Z</time>
      </trkpt>
      <trkpt lat="44.22765" lon="3.51914">
        <ele>1065</ele>
        <time>2020-01-04T18:44:16Z</time>
      </trkpt>
      <trkpt lat="44.2278" lon="3.51934">
        <ele>1065</ele>
        <time>2020-01-04T18:44:21Z</time>
      </trkpt>
      <trkpt lat="44.22791" lon="3.51968">
        <ele>1066</ele>
        <time>2020-01-04T18:44:27Z</time>
      </trkpt>
      <trkpt lat="44.22791" lon="3.51977">
        <ele>1066</ele>
        <time>2020-01-04T18:44:29Z</time>
      </trkpt>
      <trkpt lat="44.22795" lon="3.5199">
        <ele>1066</ele>
        <time>2020-01-04T18:44:31Z</time>
      </trkpt>
      <trkpt lat="44.22804" lon="3.51998">
        <ele>1066</ele>
        <time>2020-01-04T18:44:34Z</time>
      </trkpt>
      <trkpt lat="44.22808" lon="3.52007">
        <ele>1066</ele>
        <time>2020-01-04T18:44:36Z</time>
      </trkpt>
      <trkpt lat="44.22819" lon="3.5202">
        <ele>1066</ele>
        <time>2020-01-04T18:44:39Z</time>
      </trkpt>
      <trkpt lat="44.22834" lon="3.52045">
        <ele>1067</ele>
        <time>2020-01-04T18:44:44Z</time>
      </trkpt>
      <trkpt lat="44.22851" lon="3.52082">
        <ele>1068</ele>
        <time>2020-01-04T18:44:52Z</time>
      </trkpt>
      <trkpt lat="44.22849" lon="3.52108">
        <ele>1069</ele>
        <time>2020-01-04T18:44:56Z</time>
      </trkpt>
      <trkpt lat="44.22851" lon="3.52142">
        <ele>1070</ele>
        <time>2020-01-04T18:45:02Z</time>
      </trkpt>
      <trkpt lat="44.22864" lon="3.52251">
        <ele>1076</ele>
        <time>2020-01-04T18:45:20Z</time>
      </trkpt>
      <trkpt lat="44.22864" lon="3.52277">
        <ele>1078</ele>
        <time>2020-01-04T18:45:25Z</time>
      </trkpt>
      <trkpt lat="44.22868" lon="3.52301">
        <ele>1080</ele>
        <time>2020-01-04T18:45:29Z</time>
      </trkpt>
      <trkpt lat="44.2287" lon="3.52344">
        <ele>1084</ele>
        <time>2020-01-04T18:45:36Z</time>
      </trkpt>
      <trkpt lat="44.22883" lon="3.52389">
        <ele>1089</ele>
        <time>2020-01-04T18:45:44Z</time>
      </trkpt>
      <trkpt lat="44.229" lon="3.52397">
        <ele>1092</ele>
        <time>2020-01-04T18:45:48Z</time>
      </trkpt>
      <trkpt lat="44.22898" lon="3.52408">
        <ele>1092</ele>
        <time>2020-01-04T18:45:50Z</time>
      </trkpt>
      <trkpt lat="44.22888" lon="3.52423">
        <ele>1093</ele>
        <time>2020-01-04T18:45:54Z</time>
      </trkpt>
      <trkpt lat="44.22879" lon="3.52427">
        <ele>1092</ele>
        <time>2020-01-04T18:45:56Z</time>
      </trkpt>
      <trkpt lat="44.22879" lon="3.52453">
        <ele>1094</ele>
        <time>2020-01-04T18:46:00Z</time>
      </trkpt>
      <trkpt lat="44.22905" lon="3.52462">
        <ele>1098</ele>
        <time>2020-01-04T18:46:07Z</time>
      </trkpt>
      <trkpt lat="44.22926" lon="3.52464">
        <ele>1102</ele>
        <time>2020-01-04T18:46:11Z</time>
      </trkpt>
      <trkpt lat="44.22956" lon="3.52474">
        <ele>1107</ele>
        <time>2020-01-04T18:46:19Z</time>
      </trkpt>
      <trkpt lat="44.22963" lon="3.52474">
        <ele>1108</ele>
        <time>2020-01-04T18:46:20Z</time>
      </trkpt>
      <trkpt lat="44.22963" lon="3.52485">
        <ele>1110</ele>
        <time>2020-01-04T18:46:22Z</time>
      </trkpt>
      <trkpt lat="44.22954" lon="3.52504">
        <ele>1110</ele>
        <time>2020-01-04T18:46:26Z</time>
      </trkpt>
      <trkpt lat="44.22948" lon="3.52526">
        <ele>1110</ele>
        <time>2020-01-04T18:46:30Z</time>
      </trkpt>
      <trkpt lat="44.22941" lon="3.52537">
        <ele>1110</ele>
        <time>2020-01-04T18:46:32Z</time>
      </trkpt>
      <trkpt lat="44.22937" lon="3.52554">
        <ele>1110</ele>
        <time>2020-01-04T18:46:35Z</time>
      </trkpt>
      <trkpt lat="44.22945" lon="3.52565">
        <ele>1112</ele>
        <time>2020-01-04T18:46:38Z</time>
      </trkpt>
      <trkpt lat="44.22952" lon="3.52556">
        <ele>1112</ele>
        <time>2020-01-04T18:46:40Z</time>
      </trkpt>
      <trkpt lat="44.23037" lon="3.52492">
        <ele>1121</ele>
        <time>2020-01-04T18:47:03Z</time>
      </trkpt>
      <trkpt lat="44.23037" lon="3.52488">
        <ele>1120</ele>
        <time>2020-01-04T18:47:03Z</time>
      </trkpt>
      <trkpt lat="44.23073" lon="3.52469">
        <ele>1123</ele>
        <time>2020-01-04T18:47:12Z</time>
      </trkpt>
      <trkpt lat="44.23129" lon="3.52429">
        <ele>1125</ele>
        <time>2020-01-04T18:47:27Z</time>
      </trkpt>
      <trkpt lat="44.23187" lon="3.52395">
        <ele>1128</ele>
        <time>2020-01-04T18:47:42Z</time>
      </trkpt>
      <trkpt lat="44.23258" lon="3.52374">
        <ele>1132</ele>
        <time>2020-01-04T18:47:59Z</time>
      </trkpt>
      <trkpt lat="44.23287" lon="3.52361">
        <ele>1132</ele>
        <time>2020-01-04T18:48:06Z</time>
      </trkpt>
      <trkpt lat="44.23316" lon="3.52339">
        <ele>1132</ele>
        <time>2020-01-04T18:48:14Z</time>
      </trkpt>
      <trkpt lat="44.23363" lon="3.5231">
        <ele>1133</ele>
        <time>2020-01-04T18:48:26Z</time>
      </trkpt>
      <trkpt lat="44.23396" lon="3.523">
        <ele>1135</ele>
        <time>2020-01-04T18:48:33Z</time>
      </trkpt>
      <trkpt lat="44.23433" lon="3.52275">
        <ele>1135</ele>
        <time>2020-01-04T18:48:43Z</time>
      </trkpt>
      <trkpt lat="44.23458" lon="3.52255">
        <ele>1134</ele>
        <time>2020-01-04T18:48:50Z</time>
      </trkpt>
      <trkpt lat="44.23466" lon="3.52244">
        <ele>1134</ele>
        <time>2020-01-04T18:48:52Z</time>
      </trkpt>
      <trkpt lat="44.23477" lon="3.52217">
        <ele>1135</ele>
        <time>2020-01-04T18:48:58Z</time>
      </trkpt>
      <trkpt lat="44.2348" lon="3.52174">
        <ele>1137</ele>
        <time>2020-01-04T18:49:05Z</time>
      </trkpt>
      <trkpt lat="44.23473" lon="3.5214">
        <ele>1139</ele>
        <time>2020-01-04T18:49:11Z</time>
      </trkpt>
      <trkpt lat="44.23452" lon="3.52083">
        <ele>1140</ele>
        <time>2020-01-04T18:49:21Z</time>
      </trkpt>
      <trkpt lat="44.23451" lon="3.52075">
        <ele>1140</ele>
        <time>2020-01-04T18:49:23Z</time>
      </trkpt>
      <trkpt lat="44.23454" lon="3.52067">
        <ele>1141</ele>
        <time>2020-01-04T18:49:24Z</time>
      </trkpt>
      <trkpt lat="44.23462" lon="3.52066">
        <ele>1142</ele>
        <time>2020-01-04T18:49:26Z</time>
      </trkpt>
      <trkpt lat="44.23474" lon="3.52078">
        <ele>1143</ele>
        <time>2020-01-04T18:49:30Z</time>
      </trkpt>
      <trkpt lat="44.23483" lon="3.52082">
        <ele>1144</ele>
        <time>2020-01-04T18:49:32Z</time>
      </trkpt>
      <trkpt lat="44.23533" lon="3.52087">
        <ele>1147</ele>
        <time>2020-01-04T18:49:44Z</time>
      </trkpt>
      <trkpt lat="44.23568" lon="3.52096">
        <ele>1148</ele>
        <time>2020-01-04T18:49:52Z</time>
      </trkpt>
      <trkpt lat="44.23583" lon="3.52094">
        <ele>1149</ele>
        <time>2020-01-04T18:49:55Z</time>
      </trkpt>
      <trkpt lat="44.23622" lon="3.52071">
        <ele>1149</ele>
        <time>2020-01-04T18:50:05Z</time>
      </trkpt>
      <trkpt lat="44.2365" lon="3.52042">
        <ele>1150</ele>
        <time>2020-01-04T18:50:13Z</time>
      </trkpt>
      <trkpt lat="44.23713" lon="3.51991">
        <ele>1152</ele>
        <time>2020-01-04T18:50:30Z</time>
      </trkpt>
      <trkpt lat="44.23725" lon="3.51992">
        <ele>1152</ele>
        <time>2020-01-04T18:50:33Z</time>
      </trkpt>
      <trkpt lat="44.23764" lon="3.52014">
        <ele>1152</ele>
        <time>2020-01-04T18:50:43Z</time>
      </trkpt>
      <trkpt lat="44.23786" lon="3.52032">
        <ele>1152</ele>
        <time>2020-01-04T18:50:49Z</time>
      </trkpt>
      <trkpt lat="44.23845" lon="3.52053">
        <ele>1153</ele>
        <time>2020-01-04T18:51:03Z</time>
      </trkpt>
      <trkpt lat="44.23875" lon="3.5207">
        <ele>1153</ele>
        <time>2020-01-04T18:51:11Z</time>
      </trkpt>
      <trkpt lat="44.23887" lon="3.52081">
        <ele>1153</ele>
        <time>2020-01-04T18:51:14Z</time>
      </trkpt>
      <trkpt lat="44.23906" lon="3.52112">
        <ele>1153</ele>
        <time>2020-01-04T18:51:21Z</time>
      </trkpt>
      <trkpt lat="44.23926" lon="3.52136">
        <ele>1153</ele>
        <time>2020-01-04T18:51:27Z</time>
      </trkpt>
      <trkpt lat="44.23946" lon="3.52148">
        <ele>1153</ele>
        <time>2020-01-04T18:51:32Z</time>
      </trkpt>
      <trkpt lat="44.23956" lon="3.5215">
        <ele>1153</ele>
        <time>2020-01-04T18:51:35Z</time>
      </trkpt>
      <trkpt lat="44.23973" lon="3.52148">
        <ele>1153</ele>
        <time>2020-01-04T18:51:39Z</time>
      </trkpt>
      <trkpt lat="44.24041" lon="3.52134">
        <ele>1152</ele>
        <time>2020-01-04T18:51:55Z</time>
      </trkpt>
      <trkpt lat="44.24099" lon="3.52141">
        <ele>1150</ele>
        <time>2020-01-04T18:52:08Z</time>
      </trkpt>
      <trkpt lat="44.24211" lon="3.52162">
        <ele>1147</ele>
        <time>2020-01-04T18:52:35Z</time>
      </trkpt>
      <trkpt lat="44.24281" lon="3.52179">
        <ele>1142</ele>
        <time>2020-01-04T18:52:51Z</time>
      </trkpt>
      <trkpt lat="44.24416" lon="3.52227">
        <ele>1130</ele>
        <time>2020-01-04T18:53:24Z</time>
      </trkpt>
      <trkpt lat="44.24487" lon="3.52248">
        <ele>1126</ele>
        <time>2020-01-04T18:53:41Z</time>
      </trkpt>
      <trkpt lat="44.24545" lon="3.52251">
        <ele>1124</ele>
        <time>2020-01-04T18:53:54Z</time>
      </trkpt>
      <trkpt lat="44.24588" lon="3.52243">
        <ele>1122</ele>
        <time>2020-01-04T18:54:04Z</time>
      </trkpt>
      <trkpt lat="44.24618" lon="3.52251">
        <ele>1121</ele>
        <time>2020-01-04T18:54:11Z</time>
      </trkpt>
      <trkpt lat="44.24652" lon="3.52278">
        <ele>1121</ele>
        <time>2020-01-04T18:54:21Z</time>
      </trkpt>
      <trkpt lat="44.2468" lon="3.52287">
        <ele>1120</ele>
        <time>2020-01-04T18:54:27Z</time>
      </trkpt>
      <trkpt lat="44.24758" lon="3.52296">
        <ele>1115</ele>
        <time>2020-01-04T18:54:46Z</time>
      </trkpt>
      <trkpt lat="44.24789" lon="3.52304">
        <ele>1113</ele>
        <time>2020-01-04T18:54:53Z</time>
      </trkpt>
      <trkpt lat="44.24878" lon="3.52351">
        <ele>1110</ele>
        <time>2020-01-04T18:55:15Z</time>
      </trkpt>
      <trkpt lat="44.24887" lon="3.52353">
        <ele>1110</ele>
        <time>2020-01-04T18:55:17Z</time>
      </trkpt>
      <trkpt lat="44.24898" lon="3.52349">
        <ele>1110</ele>
        <time>2020-01-04T18:55:20Z</time>
      </trkpt>
      <trkpt lat="44.2492" lon="3.52325">
        <ele>1110</ele>
        <time>2020-01-04T18:55:26Z</time>
      </trkpt>
      <trkpt lat="44.24936" lon="3.5232">
        <ele>1112</ele>
        <time>2020-01-04T18:55:30Z</time>
      </trkpt>
      <trkpt lat="44.24958" lon="3.5232">
        <ele>1113</ele>
        <time>2020-01-04T18:55:35Z</time>
      </trkpt>
      <trkpt lat="44.2498" lon="3.52325">
        <ele>1114</ele>
        <time>2020-01-04T18:55:41Z</time>
      </trkpt>
      <trkpt lat="44.25022" lon="3.5233">
        <ele>1117</ele>
        <time>2020-01-04T18:55:50Z</time>
      </trkpt>
      <trkpt lat="44.25045" lon="3.52326">
        <ele>1119</ele>
        <time>2020-01-04T18:55:56Z</time>
      </trkpt>
      <trkpt lat="44.25051" lon="3.52322">
        <ele>1120</ele>
        <time>2020-01-04T18:55:57Z</time>
      </trkpt>
      <trkpt lat="44.25053" lon="3.5231">
        <ele>1121</ele>
        <time>2020-01-04T18:56:00Z</time>
      </trkpt>
      <trkpt lat="44.25059" lon="3.52315">
        <ele>1121</ele>
        <time>2020-01-04T18:56:01Z</time>
      </trkpt>
      <trkpt lat="44.25064" lon="3.52316">
        <ele>1121</ele>
        <time>2020-01-04T18:56:02Z</time>
      </trkpt>
      <trkpt lat="44.2508" lon="3.52313">
        <ele>1123</ele>
        <time>2020-01-04T18:56:06Z</time>
      </trkpt>
      <trkpt lat="44.2509" lon="3.52317">
        <ele>1123</ele>
        <time>2020-01-04T18:56:09Z</time>
      </trkpt>
      <trkpt lat="44.25107" lon="3.52325">
        <ele>1124</ele>
        <time>2020-01-04T18:56:13Z</time>
      </trkpt>
      <trkpt lat="44.25148" lon="3.52352">
        <ele>1122</ele>
        <time>2020-01-04T18:56:23Z</time>
      </trkpt>
      <trkpt lat="44.25175" lon="3.52375">
        <ele>1120</ele>
        <time>2020-01-04T18:56:31Z</time>
      </trkpt>
      <trkpt lat="44.25218" lon="3.52396">
        <ele>1121</ele>
        <time>2020-01-04T18:56:41Z</time>
      </trkpt>
      <trkpt lat="44.25239" lon="3.52402">
        <ele>1123</ele>
        <time>2020-01-04T18:56:46Z</time>
      </trkpt>
      <trkpt lat="44.25252" lon="3.52411">
        <ele>1122</ele>
        <time>2020-01-04T18:56:50Z</time>
      </trkpt>
      <trkpt lat="44.25304" lon="3.52466">
        <ele>1123</ele>
        <time>2020-01-04T18:57:05Z</time>
      </trkpt>
      <trkpt lat="44.25342" lon="3.52513">
        <ele>1122</ele>
        <time>2020-01-04T18:57:17Z</time>
      </trkpt>
      <trkpt lat="44.25353" lon="3.52521">
        <ele>1122</ele>
        <time>2020-01-04T18:57:20Z</time>
      </trkpt>
      <trkpt lat="44.25379" lon="3.52531">
        <ele>1124</ele>
        <time>2020-01-04T18:57:26Z</time>
      </trkpt>
      <trkpt lat="44.25401" lon="3.52545">
        <ele>1125</ele>
        <time>2020-01-04T18:57:32Z</time>
      </trkpt>
      <trkpt lat="44.25409" lon="3.52553">
        <ele>1124</ele>
        <time>2020-01-04T18:57:34Z</time>
      </trkpt>
      <trkpt lat="44.25442" lon="3.52599">
        <ele>1121</ele>
        <time>2020-01-04T18:57:45Z</time>
      </trkpt>
      <trkpt lat="44.25456" lon="3.52613">
        <ele>1121</ele>
        <time>2020-01-04T18:57:49Z</time>
      </trkpt>
      <trkpt lat="44.25499" lon="3.52636">
        <ele>1124</ele>
        <time>2020-01-04T18:58:00Z</time>
      </trkpt>
      <trkpt lat="44.25509" lon="3.52649">
        <ele>1122</ele>
        <time>2020-01-04T18:58:03Z</time>
      </trkpt>
      <trkpt lat="44.25545" lon="3.52683">
        <ele>1118</ele>
        <time>2020-01-04T18:58:13Z</time>
      </trkpt>
      <trkpt lat="44.25556" lon="3.5269">
        <ele>1118</ele>
        <time>2020-01-04T18:58:16Z</time>
      </trkpt>
      <trkpt lat="44.25589" lon="3.52704">
        <ele>1117</ele>
        <time>2020-01-04T18:58:24Z</time>
      </trkpt>
      <trkpt lat="44.25624" lon="3.52727">
        <ele>1113</ele>
        <time>2020-01-04T18:58:33Z</time>
      </trkpt>
      <trkpt lat="44.2565" lon="3.52756">
        <ele>1111</ele>
        <time>2020-01-04T18:58:41Z</time>
      </trkpt>
      <trkpt lat="44.25685" lon="3.52743">
        <ele>1109</ele>
        <time>2020-01-04T18:58:49Z</time>
      </trkpt>
      <trkpt lat="44.25702" lon="3.5274">
        <ele>1109</ele>
        <time>2020-01-04T18:58:53Z</time>
      </trkpt>
      <trkpt lat="44.25783" lon="3.5273">
        <ele>1106</ele>
        <time>2020-01-04T18:59:12Z</time>
      </trkpt>
      <trkpt lat="44.25824" lon="3.52729">
        <ele>1106</ele>
        <time>2020-01-04T18:59:22Z</time>
      </trkpt>
      <trkpt lat="44.25839" lon="3.52731">
        <ele>1105</ele>
        <time>2020-01-04T18:59:25Z</time>
      </trkpt>
      <trkpt lat="44.25897" lon="3.5276">
        <ele>1105</ele>
        <time>2020-01-04T18:59:40Z</time>
      </trkpt>
      <trkpt lat="44.25916" lon="3.5276">
        <ele>1105</ele>
        <time>2020-01-04T18:59:44Z</time>
      </trkpt>
      <trkpt lat="44.25943" lon="3.52755">
        <ele>1104</ele>
        <time>2020-01-04T18:59:50Z</time>
      </trkpt>
      <trkpt lat="44.25995" lon="3.52755">
        <ele>1102</ele>
        <time>2020-01-04T19:00:03Z</time>
      </trkpt>
      <trkpt lat="44.26027" lon="3.52765">
        <ele>1101</ele>
        <time>2020-01-04T19:00:10Z</time>
      </trkpt>
      <trkpt lat="44.26038" lon="3.52772">
        <ele>1101</ele>
        <time>2020-01-04T19:00:13Z</time>
      </trkpt>
      <trkpt lat="44.26054" lon="3.52788">
        <ele>1101</ele>
        <time>2020-01-04T19:00:18Z</time>
      </trkpt>
      <trkpt lat="44.26082" lon="3.52828">
        <ele>1099</ele>
        <time>2020-01-04T19:00:27Z</time>
      </trkpt>
      <trkpt lat="44.26106" lon="3.52852">
        <ele>1099</ele>
        <time>2020-01-04T19:00:34Z</time>
      </trkpt>
      <trkpt lat="44.26135" lon="3.52891">
        <ele>1097</ele>
        <time>2020-01-04T19:00:43Z</time>
      </trkpt>
      <trkpt lat="44.26176" lon="3.52969">
        <ele>1095</ele>
        <time>2020-01-04T19:00:59Z</time>
      </trkpt>
      <trkpt lat="44.26207" lon="3.53016">
        <ele>1094</ele>
        <time>2020-01-04T19:01:10Z</time>
      </trkpt>
      <trkpt lat="44.2622" lon="3.53051">
        <ele>1095</ele>
        <time>2020-01-04T19:01:17Z</time>
      </trkpt>
      <trkpt lat="44.26237" lon="3.53074">
        <ele>1094</ele>
        <time>2020-01-04T19:01:22Z</time>
      </trkpt>
      <trkpt lat="44.26252" lon="3.53091">
        <ele>1093</ele>
        <time>2020-01-04T19:01:27Z</time>
      </trkpt>
      <trkpt lat="44.26259" lon="3.53095">
        <ele>1093</ele>
        <time>2020-01-04T19:01:29Z</time>
      </trkpt>
      <trkpt lat="44.26292" lon="3.53104">
        <ele>1090</ele>
        <time>2020-01-04T19:01:36Z</time>
      </trkpt>
      <trkpt lat="44.26367" lon="3.53179">
        <ele>1090</ele>
        <time>2020-01-04T19:01:58Z</time>
      </trkpt>
      <trkpt lat="44.2638" lon="3.53197">
        <ele>1090</ele>
        <time>2020-01-04T19:02:02Z</time>
      </trkpt>
      <trkpt lat="44.26393" lon="3.5322">
        <ele>1090</ele>
        <time>2020-01-04T19:02:07Z</time>
      </trkpt>
      <trkpt lat="44.26399" lon="3.53236">
        <ele>1090</ele>
        <time>2020-01-04T19:02:10Z</time>
      </trkpt>
      <trkpt lat="44.26438" lon="3.53303">
        <ele>1090</ele>
        <time>2020-01-04T19:02:25Z</time>
      </trkpt>
      <trkpt lat="44.26468" lon="3.53332">
        <ele>1089</ele>
        <time>2020-01-04T19:02:33Z</time>
      </trkpt>
      <trkpt lat="44.26496" lon="3.53372">
        <ele>1088</ele>
        <time>2020-01-04T19:02:42Z</time>
      </trkpt>
      <trkpt lat="44.26533" lon="3.53411">
        <ele>1088</ele>
        <time>2020-01-04T19:02:53Z</time>
      </trkpt>
      <trkpt lat="44.26552" lon="3.53428">
        <ele>1087</ele>
        <time>2020-01-04T19:02:59Z</time>
      </trkpt>
      <trkpt lat="44.26591" lon="3.53455">
        <ele>1086</ele>
        <time>2020-01-04T19:03:09Z</time>
      </trkpt>
      <trkpt lat="44.26606" lon="3.53475">
        <ele>1086</ele>
        <time>2020-01-04T19:03:14Z</time>
      </trkpt>
      <trkpt lat="44.2662" lon="3.53507">
        <ele>1088</ele>
        <time>2020-01-04T19:03:20Z</time>
      </trkpt>
      <trkpt lat="44.26631" lon="3.53524">
        <ele>1089</ele>
        <time>2020-01-04T19:03:24Z</time>
      </trkpt>
      <trkpt lat="44.26668" lon="3.53556">
        <ele>1090</ele>
        <time>2020-01-04T19:03:34Z</time>
      </trkpt>
      <trkpt lat="44.26683" lon="3.5358">
        <ele>1092</ele>
        <time>2020-01-04T19:03:39Z</time>
      </trkpt>
      <trkpt lat="44.267" lon="3.53595">
        <ele>1092</ele>
        <time>2020-01-04T19:03:44Z</time>
      </trkpt>
      <trkpt lat="44.26715" lon="3.53618">
        <ele>1093</ele>
        <time>2020-01-04T19:03:49Z</time>
      </trkpt>
      <trkpt lat="44.26732" lon="3.53654">
        <ele>1093</ele>
        <time>2020-01-04T19:03:56Z</time>
      </trkpt>
      <trkpt lat="44.26751" lon="3.53681">
        <ele>1093</ele>
        <time>2020-01-04T19:04:03Z</time>
      </trkpt>
      <trkpt lat="44.26785" lon="3.53739">
        <ele>1098</ele>
        <time>2020-01-04T19:04:15Z</time>
      </trkpt>
      <trkpt lat="44.2679" lon="3.53742">
        <ele>1098</ele>
        <time>2020-01-04T19:04:16Z</time>
      </trkpt>
      <trkpt lat="44.26809" lon="3.53739">
        <ele>1098</ele>
        <time>2020-01-04T19:04:21Z</time>
      </trkpt>
      <trkpt lat="44.26825" lon="3.5374">
        <ele>1097</ele>
        <time>2020-01-04T19:04:25Z</time>
      </trkpt>
      <trkpt lat="44.26842" lon="3.53748">
        <ele>1098</ele>
        <time>2020-01-04T19:04:29Z</time>
      </trkpt>
      <trkpt lat="44.2687" lon="3.53756">
        <ele>1100</ele>
        <time>2020-01-04T19:04:35Z</time>
      </trkpt>
      <trkpt lat="44.26884" lon="3.53765">
        <ele>1102</ele>
        <time>2020-01-04T19:04:39Z</time>
      </trkpt>
      <trkpt lat="44.26901" lon="3.53772">
        <ele>1104</ele>
        <time>2020-01-04T19:04:43Z</time>
      </trkpt>
      <trkpt lat="44.26917" lon="3.53783">
        <ele>1106</ele>
        <time>2020-01-04T19:04:47Z</time>
      </trkpt>
      <trkpt lat="44.26954" lon="3.53816">
        <ele>1112</ele>
        <time>2020-01-04T19:04:58Z</time>
      </trkpt>
      <trkpt lat="44.26968" lon="3.53821">
        <ele>1114</ele>
        <time>2020-01-04T19:05:01Z</time>
      </trkpt>
      <trkpt lat="44.27013" lon="3.53817">
        <ele>1116</ele>
        <time>2020-01-04T19:05:11Z</time>
      </trkpt>
      <trkpt lat="44.2703" lon="3.53821">
        <ele>1117</ele>
        <time>2020-01-04T19:05:16Z</time>
      </trkpt>
      <trkpt lat="44.27042" lon="3.53828">
        <ele>1118</ele>
        <time>2020-01-04T19:05:19Z</time>
      </trkpt>
      <trkpt lat="44.27064" lon="3.53843">
        <ele>1119</ele>
        <time>2020-01-04T19:05:24Z</time>
      </trkpt>
      <trkpt lat="44.2711" lon="3.53885">
        <ele>1118</ele>
        <time>2020-01-04T19:05:37Z</time>
      </trkpt>
      <trkpt lat="44.2716" lon="3.53916">
        <ele>1114</ele>
        <time>2020-01-04T19:05:50Z</time>
      </trkpt>
      <trkpt lat="44.2718" lon="3.53941">
        <ele>1111</ele>
        <time>2020-01-04T19:05:56Z</time>
      </trkpt>
      <trkpt lat="44.27197" lon="3.53972">
        <ele>1109</ele>
        <time>2020-01-04T19:06:03Z</time>
      </trkpt>
      <trkpt lat="44.27234" lon="3.54006">
        <ele>1103</ele>
        <time>2020-01-04T19:06:13Z</time>
      </trkpt>
      <trkpt lat="44.27275" lon="3.54025">
        <ele>1096</ele>
        <time>2020-01-04T19:06:23Z</time>
      </trkpt>
      <trkpt lat="44.27307" lon="3.54056">
        <ele>1090</ele>
        <time>2020-01-04T19:06:32Z</time>
      </trkpt>
      <trkpt lat="44.27338" lon="3.54103">
        <ele>1084</ele>
        <time>2020-01-04T19:06:43Z</time>
      </trkpt>
      <trkpt lat="44.27359" lon="3.54118">
        <ele>1081</ele>
        <time>2020-01-04T19:06:48Z</time>
      </trkpt>
      <trkpt lat="44.2741" lon="3.54098">
        <ele>1066</ele>
        <time>2020-01-04T19:07:01Z</time>
      </trkpt>
      <trkpt lat="44.27438" lon="3.54102">
        <ele>1060</ele>
        <time>2020-01-04T19:07:07Z</time>
      </trkpt>
      <trkpt lat="44.27475" lon="3.54118">
        <ele>1053</ele>
        <time>2020-01-04T19:07:16Z</time>
      </trkpt>
      <trkpt lat="44.27488" lon="3.54127">
        <ele>1051</ele>
        <time>2020-01-04T19:07:20Z</time>
      </trkpt>
      <trkpt lat="44.27497" lon="3.5414">
        <ele>1049</ele>
        <time>2020-01-04T19:07:23Z</time>
      </trkpt>
      <trkpt lat="44.2751" lon="3.54125">
        <ele>1048</ele>
        <time>2020-01-04T19:07:27Z</time>
      </trkpt>
      <trkpt lat="44.27526" lon="3.54095">
        <ele>1049</ele>
        <time>2020-01-04T19:07:33Z</time>
      </trkpt>
      <trkpt lat="44.27541" lon="3.54077">
        <ele>1050</ele>
        <time>2020-01-04T19:07:38Z</time>
      </trkpt>
      <trkpt lat="44.27556" lon="3.54086">
        <ele>1050</ele>
        <time>2020-01-04T19:07:41Z</time>
      </trkpt>
      <trkpt lat="44.27571" lon="3.5412">
        <ele>1048</ele>
        <time>2020-01-04T19:07:48Z</time>
      </trkpt>
      <trkpt lat="44.27588" lon="3.54138">
        <ele>1046</ele>
        <time>2020-01-04T19:07:53Z</time>
      </trkpt>
      <trkpt lat="44.27617" lon="3.54145">
        <ele>1045</ele>
        <time>2020-01-04T19:08:00Z</time>
      </trkpt>
      <trkpt lat="44.27709" lon="3.54116">
        <ele>1048</ele>
        <time>2020-01-04T19:08:22Z</time>
      </trkpt>
      <trkpt lat="44.27735" lon="3.5412">
        <ele>1047</ele>
        <time>2020-01-04T19:08:28Z</time>
      </trkpt>
      <trkpt lat="44.27824" lon="3.54174">
        <ele>1035</ele>
        <time>2020-01-04T19:08:51Z</time>
      </trkpt>
      <trkpt lat="44.27924" lon="3.5421">
        <ele>1028</ele>
        <time>2020-01-04T19:09:15Z</time>
      </trkpt>
      <trkpt lat="44.27962" lon="3.54213">
        <ele>1026</ele>
        <time>2020-01-04T19:09:24Z</time>
      </trkpt>
      <trkpt lat="44.28004" lon="3.54223">
        <ele>1024</ele>
        <time>2020-01-04T19:09:34Z</time>
      </trkpt>
      <trkpt lat="44.28026" lon="3.54236">
        <ele>1023</ele>
        <time>2020-01-04T19:09:39Z</time>
      </trkpt>
      <trkpt lat="44.28028" lon="3.54308">
        <ele>1019</ele>
        <time>2020-01-04T19:09:51Z</time>
      </trkpt>
      <trkpt lat="44.27993" lon="3.54479">
        <ele>1018</ele>
        <time>2020-01-04T19:10:21Z</time>
      </trkpt>
      <trkpt lat="44.27988" lon="3.54493">
        <ele>1019</ele>
        <time>2020-01-04T19:10:24Z</time>
      </trkpt>
      <trkpt lat="44.27989" lon="3.54505">
        <ele>1020</ele>
        <time>2020-01-04T19:10:26Z</time>
      </trkpt>
      <trkpt lat="44.27993" lon="3.54514">
        <ele>1020</ele>
        <time>2020-01-04T19:10:27Z</time>
      </trkpt>
      <trkpt lat="44.28043" lon="3.54544">
        <ele>1019</ele>
        <time>2020-01-04T19:10:40Z</time>
      </trkpt>
      <trkpt lat="44.28072" lon="3.54575">
        <ele>1018</ele>
        <time>2020-01-04T19:10:49Z</time>
      </trkpt>
      <trkpt lat="44.28087" lon="3.54599">
        <ele>1019</ele>
        <time>2020-01-04T19:10:54Z</time>
      </trkpt>
      <trkpt lat="44.28097" lon="3.54606">
        <ele>1018</ele>
        <time>2020-01-04T19:10:57Z</time>
      </trkpt>
      <trkpt lat="44.28104" lon="3.5462">
        <ele>1019</ele>
        <time>2020-01-04T19:11:00Z</time>
      </trkpt>
      <trkpt lat="44.28141" lon="3.54643">
        <ele>1018</ele>
        <time>2020-01-04T19:11:09Z</time>
      </trkpt>
      <trkpt lat="44.28187" lon="3.54691">
        <ele>1019</ele>
        <time>2020-01-04T19:11:22Z</time>
      </trkpt>
      <trkpt lat="44.28201" lon="3.54686">
        <ele>1017</ele>
        <time>2020-01-04T19:11:26Z</time>
      </trkpt>
      <trkpt lat="44.28207" lon="3.54687">
        <ele>1016</ele>
        <time>2020-01-04T19:11:27Z</time>
      </trkpt>
      <trkpt lat="44.28249" lon="3.54707">
        <ele>1014</ele>
        <time>2020-01-04T19:11:38Z</time>
      </trkpt>
      <trkpt lat="44.28272" lon="3.54711">
        <ele>1012</ele>
        <time>2020-01-04T19:11:43Z</time>
      </trkpt>
      <trkpt lat="44.28323" lon="3.54706">
        <ele>1006</ele>
        <time>2020-01-04T19:11:55Z</time>
      </trkpt>
      <trkpt lat="44.28354" lon="3.54708">
        <ele>1004</ele>
        <time>2020-01-04T19:12:02Z</time>
      </trkpt>
      <trkpt lat="44.28414" lon="3.54743">
        <ele>1002</ele>
        <time>2020-01-04T19:12:17Z</time>
      </trkpt>
      <trkpt lat="44.28484" lon="3.54791">
        <ele>1000</ele>
        <time>2020-01-04T19:12:36Z</time>
      </trkpt>
      <trkpt lat="44.28489" lon="3.5479">
        <ele>999</ele>
        <time>2020-01-04T19:12:37Z</time>
      </trkpt>
      <trkpt lat="44.28496" lon="3.5477">
        <ele>997</ele>
        <time>2020-01-04T19:12:40Z</time>
      </trkpt>
      <trkpt lat="44.28513" lon="3.54677">
        <ele>996</ele>
        <time>2020-01-04T19:12:56Z</time>
      </trkpt>
      <trkpt lat="44.28523" lon="3.54561">
        <ele>996</ele>
        <time>2020-01-04T19:13:16Z</time>
      </trkpt>
      <trkpt lat="44.2852" lon="3.54543">
        <ele>996</ele>
        <time>2020-01-04T19:13:19Z</time>
      </trkpt>
      <trkpt lat="44.28529" lon="3.54465">
        <ele>998</ele>
        <time>2020-01-04T19:13:32Z</time>
      </trkpt>
      <trkpt lat="44.28557" lon="3.54478">
        <ele>995</ele>
        <time>2020-01-04T19:13:39Z</time>
      </trkpt>
      <trkpt lat="44.28689" lon="3.54525">
        <ele>991</ele>
        <time>2020-01-04T19:14:11Z</time>
      </trkpt>
      <trkpt lat="44.28798" lon="3.54569">
        <ele>989</ele>
        <time>2020-01-04T19:14:37Z</time>
      </trkpt>
      <trkpt lat="44.28864" lon="3.54602">
        <ele>988</ele>
        <time>2020-01-04T19:14:54Z</time>
      </trkpt>
      <trkpt lat="44.28913" lon="3.5463">
        <ele>987</ele>
        <time>2020-01-04T19:15:06Z</time>
      </trkpt>
      <trkpt lat="44.28984" lon="3.5466">
        <ele>986</ele>
        <time>2020-01-04T19:15:24Z</time>
      </trkpt>
      <trkpt lat="44.29025" lon="3.54691">
        <ele>987</ele>
        <time>2020-01-04T19:15:34Z</time>
      </trkpt>
      <trkpt lat="44.29042" lon="3.54699">
        <ele>988</ele>
        <time>2020-01-04T19:15:39Z</time>
      </trkpt>
      <trkpt lat="44.29052" lon="3.54697">
        <ele>987</ele>
        <time>2020-01-04T19:15:41Z</time>
      </trkpt>
      <trkpt lat="44.29072" lon="3.54682">
        <ele>987</ele>
        <time>2020-01-04T19:15:46Z</time>
      </trkpt>
      <trkpt lat="44.29095" lon="3.54672">
        <ele>986</ele>
        <time>2020-01-04T19:15:52Z</time>
      </trkpt>
      <trkpt lat="44.29112" lon="3.54668">
        <ele>986</ele>
        <time>2020-01-04T19:15:56Z</time>
      </trkpt>
      <trkpt lat="44.2914" lon="3.5467">
        <ele>986</ele>
        <time>2020-01-04T19:16:02Z</time>
      </trkpt>
      <trkpt lat="44.29207" lon="3.54646">
        <ele>986</ele>
        <time>2020-01-04T19:16:19Z</time>
      </trkpt>
      <trkpt lat="44.29215" lon="3.54641">
        <ele>986</ele>
        <time>2020-01-04T19:16:21Z</time>
      </trkpt>
      <trkpt lat="44.29279" lon="3.54581">
        <ele>985</ele>
        <time>2020-01-04T19:16:39Z</time>
      </trkpt>
      <trkpt lat="44.2931" lon="3.54549">
        <ele>985</ele>
        <time>2020-01-04T19:16:48Z</time>
      </trkpt>
      <trkpt lat="44.29368" lon="3.54505">
        <ele>985</ele>
        <time>2020-01-04T19:17:03Z</time>
      </trkpt>
      <trkpt lat="44.29383" lon="3.54504">
        <ele>985</ele>
        <time>2020-01-04T19:17:07Z</time>
      </trkpt>
      <trkpt lat="44.29413" lon="3.54516">
        <ele>986</ele>
        <time>2020-01-04T19:17:14Z</time>
      </trkpt>
      <trkpt lat="44.29439" lon="3.54513">
        <ele>985</ele>
        <time>2020-01-04T19:17:20Z</time>
      </trkpt>
      <trkpt lat="44.29474" lon="3.54504">
        <ele>984</ele>
        <time>2020-01-04T19:17:28Z</time>
      </trkpt>
      <trkpt lat="44.29505" lon="3.54502">
        <ele>984</ele>
        <time>2020-01-04T19:17:36Z</time>
      </trkpt>
      <trkpt lat="44.29515" lon="3.54495">
        <ele>984</ele>
        <time>2020-01-04T19:17:38Z</time>
      </trkpt>
      <trkpt lat="44.29524" lon="3.54483">
        <ele>984</ele>
        <time>2020-01-04T19:17:41Z</time>
      </trkpt>
      <trkpt lat="44.29583" lon="3.54361">
        <ele>981</ele>
        <time>2020-01-04T19:18:06Z</time>
      </trkpt>
      <trkpt lat="44.2959" lon="3.54307">
        <ele>979</ele>
        <time>2020-01-04T19:18:15Z</time>
      </trkpt>
      <trkpt lat="44.29595" lon="3.54291">
        <ele>979</ele>
        <time>2020-01-04T19:18:18Z</time>
      </trkpt>
      <trkpt lat="44.2962" lon="3.54238">
        <ele>978</ele>
        <time>2020-01-04T19:18:28Z</time>
      </trkpt>
      <trkpt lat="44.29649" lon="3.5405">
        <ele>975</ele>
        <time>2020-01-04T19:19:01Z</time>
      </trkpt>
      <trkpt lat="44.29665" lon="3.54005">
        <ele>975</ele>
        <time>2020-01-04T19:19:09Z</time>
      </trkpt>
      <trkpt lat="44.29675" lon="3.53989">
        <ele>975</ele>
        <time>2020-01-04T19:19:12Z</time>
      </trkpt>
      <trkpt lat="44.29685" lon="3.53978">
        <ele>975</ele>
        <time>2020-01-04T19:19:15Z</time>
      </trkpt>
      <trkpt lat="44.29736" lon="3.5394">
        <ele>975</ele>
        <time>2020-01-04T19:19:29Z</time>
      </trkpt>
      <trkpt lat="44.29751" lon="3.53934">
        <ele>976</ele>
        <time>2020-01-04T19:19:33Z</time>
      </trkpt>
      <trkpt lat="44.29853" lon="3.53912">
        <ele>974</ele>
        <time>2020-01-04T19:19:57Z</time>
      </trkpt>
      <trkpt lat="44.3004" lon="3.53881">
        <ele>970</ele>
        <time>2020-01-04T19:20:41Z</time>
      </trkpt>
      <trkpt lat="44.30062" lon="3.53876">
        <ele>969</ele>
        <time>2020-01-04T19:20:46Z</time>
      </trkpt>
      <trkpt lat="44.30072" lon="3.53868">
        <ele>969</ele>
        <time>2020-01-04T19:20:49Z</time>
      </trkpt>
      <trkpt lat="44.30066" lon="3.53894">
        <ele>969</ele>
        <time>2020-01-04T19:20:53Z</time>
      </trkpt>
      <trkpt lat="44.30068" lon="3.53919">
        <ele>969</ele>
        <time>2020-01-04T19:20:57Z</time>
      </trkpt>
      <trkpt lat="44.30075" lon="3.5393">
        <ele>969</ele>
        <time>2020-01-04T19:21:00Z</time>
      </trkpt>
      <trkpt lat="44.30148" lon="3.54005">
        <ele>971</ele>
        <time>2020-01-04T19:21:21Z</time>
      </trkpt>
      <trkpt lat="44.30218" lon="3.54122">
        <ele>976</ele>
        <time>2020-01-04T19:21:46Z</time>
      </trkpt>
      <trkpt lat="44.30263" lon="3.5421">
        <ele>979</ele>
        <time>2020-01-04T19:22:05Z</time>
      </trkpt>
      <trkpt lat="44.30265" lon="3.54234">
        <ele>980</ele>
        <time>2020-01-04T19:22:09Z</time>
      </trkpt>
      <trkpt lat="44.30233" lon="3.54326">
        <ele>983</ele>
        <time>2020-01-04T19:22:26Z</time>
      </trkpt>
      <trkpt lat="44.30222" lon="3.54346">
        <ele>984</ele>
        <time>2020-01-04T19:22:30Z</time>
      </trkpt>
      <trkpt lat="44.30213" lon="3.54356">
        <ele>985</ele>
        <time>2020-01-04T19:22:33Z</time>
      </trkpt>
      <trkpt lat="44.30207" lon="3.54369">
        <ele>986</ele>
        <time>2020-01-04T19:22:35Z</time>
      </trkpt>
      <trkpt lat="44.30202" lon="3.54421">
        <ele>986</ele>
        <time>2020-01-04T19:22:44Z</time>
      </trkpt>
      <trkpt lat="44.30194" lon="3.54466">
        <ele>988</ele>
        <time>2020-01-04T19:22:52Z</time>
      </trkpt>
      <trkpt lat="44.30198" lon="3.54534">
        <ele>989</ele>
        <time>2020-01-04T19:23:03Z</time>
      </trkpt>
      <trkpt lat="44.30196" lon="3.54547">
        <ele>989</ele>
        <time>2020-01-04T19:23:05Z</time>
      </trkpt>
      <trkpt lat="44.30185" lon="3.54573">
        <ele>989</ele>
        <time>2020-01-04T19:23:10Z</time>
      </trkpt>
      <trkpt lat="44.30187" lon="3.54588">
        <ele>989</ele>
        <time>2020-01-04T19:23:13Z</time>
      </trkpt>
      <trkpt lat="44.30248" lon="3.54689">
        <ele>992</ele>
        <time>2020-01-04T19:23:35Z</time>
      </trkpt>
      <trkpt lat="44.3026" lon="3.54725">
        <ele>995</ele>
        <time>2020-01-04T19:23:42Z</time>
      </trkpt>
      <trkpt lat="44.3026" lon="3.54736">
        <ele>996</ele>
        <time>2020-01-04T19:23:43Z</time>
      </trkpt>
      <trkpt lat="44.30256" lon="3.54751">
        <ele>997</ele>
        <time>2020-01-04T19:23:46Z</time>
      </trkpt>
      <trkpt lat="44.30237" lon="3.54768">
        <ele>998</ele>
        <time>2020-01-04T19:23:51Z</time>
      </trkpt>
      <trkpt lat="44.30237" lon="3.54779">
        <ele>999</ele>
        <time>2020-01-04T19:23:53Z</time>
      </trkpt>
      <trkpt lat="44.30245" lon="3.54813">
        <ele>1003</ele>
        <time>2020-01-04T19:23:59Z</time>
      </trkpt>
      <trkpt lat="44.30245" lon="3.54835">
        <ele>1005</ele>
        <time>2020-01-04T19:24:03Z</time>
      </trkpt>
      <trkpt lat="44.30258" lon="3.54858">
        <ele>1008</ele>
        <time>2020-01-04T19:24:08Z</time>
      </trkpt>
      <trkpt lat="44.30269" lon="3.54865">
        <ele>1009</ele>
        <time>2020-01-04T19:24:11Z</time>
      </trkpt>
      <trkpt lat="44.30312" lon="3.54876">
        <ele>1012</ele>
        <time>2020-01-04T19:24:21Z</time>
      </trkpt>
      <trkpt lat="44.30325" lon="3.54895">
        <ele>1015</ele>
        <time>2020-01-04T19:24:25Z</time>
      </trkpt>
      <trkpt lat="44.30344" lon="3.54916">
        <ele>1016</ele>
        <time>2020-01-04T19:24:31Z</time>
      </trkpt>
      <trkpt lat="44.30348" lon="3.54927">
        <ele>1017</ele>
        <time>2020-01-04T19:24:33Z</time>
      </trkpt>
      <trkpt lat="44.30353" lon="3.54979">
        <ele>1019</ele>
        <time>2020-01-04T19:24:42Z</time>
      </trkpt>
      <trkpt lat="44.30351" lon="3.55028">
        <ele>1023</ele>
        <time>2020-01-04T19:24:50Z</time>
      </trkpt>
      <trkpt lat="44.30355" lon="3.55174">
        <ele>1034</ele>
        <time>2020-01-04T19:25:14Z</time>
      </trkpt>
      <trkpt lat="44.30351" lon="3.55193">
        <ele>1036</ele>
        <time>2020-01-04T19:25:18Z</time>
      </trkpt>
      <trkpt lat="44.30342" lon="3.55215">
        <ele>1038</ele>
        <time>2020-01-04T19:25:22Z</time>
      </trkpt>
      <trkpt lat="44.30331" lon="3.55232">
        <ele>1040</ele>
        <time>2020-01-04T19:25:26Z</time>
      </trkpt>
      <trkpt lat="44.30321" lon="3.55242">
        <ele>1040</ele>
        <time>2020-01-04T19:25:29Z</time>
      </trkpt>
      <trkpt lat="44.3028" lon="3.55273">
        <ele>1040</ele>
        <time>2020-01-04T19:25:39Z</time>
      </trkpt>
      <trkpt lat="44.30228" lon="3.55247">
        <ele>1039</ele>
        <time>2020-01-04T19:25:52Z</time>
      </trkpt>
      <trkpt lat="44.30205" lon="3.5524">
        <ele>1037</ele>
        <time>2020-01-04T19:25:58Z</time>
      </trkpt>
      <trkpt lat="44.30196" lon="3.5524">
        <ele>1037</ele>
        <time>2020-01-04T19:26:00Z</time>
      </trkpt>
      <trkpt lat="44.30187" lon="3.55245">
        <ele>1037</ele>
        <time>2020-01-04T19:26:02Z</time>
      </trkpt>
      <trkpt lat="44.30175" lon="3.55279">
        <ele>1037</ele>
        <time>2020-01-04T19:26:09Z</time>
      </trkpt>
      <trkpt lat="44.30166" lon="3.55285">
        <ele>1036</ele>
        <time>2020-01-04T19:26:11Z</time>
      </trkpt>
      <trkpt lat="44.30157" lon="3.55285">
        <ele>1037</ele>
        <time>2020-01-04T19:26:13Z</time>
      </trkpt>
      <trkpt lat="44.30127" lon="3.5527">
        <ele>1037</ele>
        <time>2020-01-04T19:26:20Z</time>
      </trkpt>
      <trkpt lat="44.30104" lon="3.55249">
        <ele>1036</ele>
        <time>2020-01-04T19:26:27Z</time>
      </trkpt>
      <trkpt lat="44.30091" lon="3.55249">
        <ele>1036</ele>
        <time>2020-01-04T19:26:30Z</time>
      </trkpt>
      <trkpt lat="44.30061" lon="3.55266">
        <ele>1038</ele>
        <time>2020-01-04T19:26:37Z</time>
      </trkpt>
      <trkpt lat="44.30042" lon="3.55294">
        <ele>1041</ele>
        <time>2020-01-04T19:26:44Z</time>
      </trkpt>
      <trkpt lat="44.30037" lon="3.55305">
        <ele>1042</ele>
        <time>2020-01-04T19:26:46Z</time>
      </trkpt>
      <trkpt lat="44.30037" lon="3.55315">
        <ele>1043</ele>
        <time>2020-01-04T19:26:48Z</time>
      </trkpt>
      <trkpt lat="44.30048" lon="3.55335">
        <ele>1044</ele>
        <time>2020-01-04T19:26:52Z</time>
      </trkpt>
      <trkpt lat="44.3005" lon="3.55343">
        <ele>1044</ele>
        <time>2020-01-04T19:26:53Z</time>
      </trkpt>
      <trkpt lat="44.30048" lon="3.55352">
        <ele>1045</ele>
        <time>2020-01-04T19:26:55Z</time>
      </trkpt>
      <trkpt lat="44.30022" lon="3.55363">
        <ele>1048</ele>
        <time>2020-01-04T19:27:01Z</time>
      </trkpt>
      <trkpt lat="44.29979" lon="3.55399">
        <ele>1054</ele>
        <time>2020-01-04T19:27:13Z</time>
      </trkpt>
      <trkpt lat="44.29964" lon="3.55393">
        <ele>1055</ele>
        <time>2020-01-04T19:27:17Z</time>
      </trkpt>
      <trkpt lat="44.29947" lon="3.55393">
        <ele>1056</ele>
        <time>2020-01-04T19:27:21Z</time>
      </trkpt>
      <trkpt lat="44.29928" lon="3.55384">
        <ele>1056</ele>
        <time>2020-01-04T19:27:25Z</time>
      </trkpt>
      <trkpt lat="44.29913" lon="3.55386">
        <ele>1057</ele>
        <time>2020-01-04T19:27:29Z</time>
      </trkpt>
      <trkpt lat="44.29904" lon="3.55395">
        <ele>1058</ele>
        <time>2020-01-04T19:27:31Z</time>
      </trkpt>
      <trkpt lat="44.29898" lon="3.5541">
        <ele>1059</ele>
        <time>2020-01-04T19:27:34Z</time>
      </trkpt>
      <trkpt lat="44.29878" lon="3.55436">
        <ele>1062</ele>
        <time>2020-01-04T19:27:41Z</time>
      </trkpt>
      <trkpt lat="44.29868" lon="3.55466">
        <ele>1065</ele>
        <time>2020-01-04T19:27:46Z</time>
      </trkpt>
      <trkpt lat="44.29861" lon="3.55479">
        <ele>1066</ele>
        <time>2020-01-04T19:27:49Z</time>
      </trkpt>
      <trkpt lat="44.29846" lon="3.55496">
        <ele>1068</ele>
        <time>2020-01-04T19:27:53Z</time>
      </trkpt>
      <trkpt lat="44.29831" lon="3.55528">
        <ele>1070</ele>
        <time>2020-01-04T19:28:00Z</time>
      </trkpt>
      <trkpt lat="44.29829" lon="3.55545">
        <ele>1071</ele>
        <time>2020-01-04T19:28:03Z</time>
      </trkpt>
      <trkpt lat="44.29818" lon="3.55584">
        <ele>1072</ele>
        <time>2020-01-04T19:28:10Z</time>
      </trkpt>
      <trkpt lat="44.29806" lon="3.55665">
        <ele>1074</ele>
        <time>2020-01-04T19:28:23Z</time>
      </trkpt>
      <trkpt lat="44.29801" lon="3.55682">
        <ele>1073</ele>
        <time>2020-01-04T19:28:27Z</time>
      </trkpt>
      <trkpt lat="44.29799" lon="3.55721">
        <ele>1072</ele>
        <time>2020-01-04T19:28:33Z</time>
      </trkpt>
      <trkpt lat="44.29801" lon="3.55738">
        <ele>1072</ele>
        <time>2020-01-04T19:28:36Z</time>
      </trkpt>
      <trkpt lat="44.2981" lon="3.55764">
        <ele>1073</ele>
        <time>2020-01-04T19:28:41Z</time>
      </trkpt>
      <trkpt lat="44.29812" lon="3.55777">
        <ele>1072</ele>
        <time>2020-01-04T19:28:43Z</time>
      </trkpt>
      <trkpt lat="44.29803" lon="3.5583">
        <ele>1068</ele>
        <time>2020-01-04T19:28:52Z</time>
      </trkpt>
      <trkpt lat="44.29799" lon="3.55841">
        <ele>1067</ele>
        <time>2020-01-04T19:28:54Z</time>
      </trkpt>
      <trkpt lat="44.29795" lon="3.55845">
        <ele>1067</ele>
        <time>2020-01-04T19:28:55Z</time>
      </trkpt>
      <trkpt lat="44.29808" lon="3.55852">
        <ele>1068</ele>
        <time>2020-01-04T19:28:59Z</time>
      </trkpt>
      <trkpt lat="44.29844" lon="3.5588">
        <ele>1069</ele>
        <time>2020-01-04T19:29:08Z</time>
      </trkpt>
      <trkpt lat="44.29863" lon="3.55912">
        <ele>1068</ele>
        <time>2020-01-04T19:29:15Z</time>
      </trkpt>
      <trkpt lat="44.29878" lon="3.55931">
        <ele>1068</ele>
        <time>2020-01-04T19:29:20Z</time>
      </trkpt>
      <trkpt lat="44.29889" lon="3.55953">
        <ele>1067</ele>
        <time>2020-01-04T19:29:24Z</time>
      </trkpt>
      <trkpt lat="44.29893" lon="3.55968">
        <ele>1067</ele>
        <time>2020-01-04T19:29:27Z</time>
      </trkpt>
      <trkpt lat="44.29893" lon="3.56021">
        <ele>1064</ele>
        <time>2020-01-04T19:29:36Z</time>
      </trkpt>
      <trkpt lat="44.29887" lon="3.56069">
        <ele>1061</ele>
        <time>2020-01-04T19:29:44Z</time>
      </trkpt>
      <trkpt lat="44.29885" lon="3.5612">
        <ele>1060</ele>
        <time>2020-01-04T19:29:53Z</time>
      </trkpt>
      <trkpt lat="44.29911" lon="3.56223">
        <ele>1061</ele>
        <time>2020-01-04T19:30:11Z</time>
      </trkpt>
      <trkpt lat="44.29919" lon="3.56249">
        <ele>1062</ele>
        <time>2020-01-04T19:30:16Z</time>
      </trkpt>
      <trkpt lat="44.2993" lon="3.56268">
        <ele>1062</ele>
        <time>2020-01-04T19:30:20Z</time>
      </trkpt>
      <trkpt lat="44.29943" lon="3.56277">
        <ele>1061</ele>
        <time>2020-01-04T19:30:23Z</time>
      </trkpt>
      <trkpt lat="44.29962" lon="3.56283">
        <ele>1058</ele>
        <time>2020-01-04T19:30:28Z</time>
      </trkpt>
      <trkpt lat="44.29986" lon="3.56296">
        <ele>1056</ele>
        <time>2020-01-04T19:30:34Z</time>
      </trkpt>
      <trkpt lat="44.30016" lon="3.56326">
        <ele>1054</ele>
        <time>2020-01-04T19:30:42Z</time>
      </trkpt>
      <trkpt lat="44.30042" lon="3.56348">
        <ele>1052</ele>
        <time>2020-01-04T19:30:49Z</time>
      </trkpt>
      <trkpt lat="44.3008" lon="3.56412">
        <ele>1050</ele>
        <time>2020-01-04T19:31:03Z</time>
      </trkpt>
      <trkpt lat="44.30093" lon="3.56429">
        <ele>1050</ele>
        <time>2020-01-04T19:31:07Z</time>
      </trkpt>
      <trkpt lat="44.30168" lon="3.56498">
        <ele>1043</ele>
        <time>2020-01-04T19:31:28Z</time>
      </trkpt>
      <trkpt lat="44.302" lon="3.56534">
        <ele>1040</ele>
        <time>2020-01-04T19:31:38Z</time>
      </trkpt>
      <trkpt lat="44.30282" lon="3.56665">
        <ele>1035</ele>
        <time>2020-01-04T19:32:07Z</time>
      </trkpt>
      <trkpt lat="44.30376" lon="3.56768">
        <ele>1028</ele>
        <time>2020-01-04T19:32:35Z</time>
      </trkpt>
      <trkpt lat="44.30391" lon="3.56807">
        <ele>1028</ele>
        <time>2020-01-04T19:32:42Z</time>
      </trkpt>
      <trkpt lat="44.30359" lon="3.56828">
        <ele>1032</ele>
        <time>2020-01-04T19:32:51Z</time>
      </trkpt>
      <trkpt lat="44.30329" lon="3.56841">
        <ele>1035</ele>
        <time>2020-01-04T19:32:58Z</time>
      </trkpt>
      <trkpt lat="44.30293" lon="3.56865">
        <ele>1039</ele>
        <time>2020-01-04T19:33:07Z</time>
      </trkpt>
      <trkpt lat="44.30263" lon="3.56875">
        <ele>1040</ele>
        <time>2020-01-04T19:33:14Z</time>
      </trkpt>
      <trkpt lat="44.30222" lon="3.56916">
        <ele>1043</ele>
        <time>2020-01-04T19:33:26Z</time>
      </trkpt>
      <trkpt lat="44.30192" lon="3.56966">
        <ele>1048</ele>
        <time>2020-01-04T19:33:37Z</time>
      </trkpt>
      <trkpt lat="44.30164" lon="3.56985">
        <ele>1049</ele>
        <time>2020-01-04T19:33:44Z</time>
      </trkpt>
      <trkpt lat="44.3016" lon="3.57066">
        <ele>1054</ele>
        <time>2020-01-04T19:33:58Z</time>
      </trkpt>
      <trkpt lat="44.30172" lon="3.57167">
        <ele>1059</ele>
        <time>2020-01-04T19:34:15Z</time>
      </trkpt>
      <trkpt lat="44.30168" lon="3.57169">
        <ele>1059</ele>
        <time>2020-01-04T19:34:16Z</time>
      </trkpt>
      <trkpt lat="44.3016" lon="3.57167">
        <ele>1060</ele>
        <time>2020-01-04T19:34:18Z</time>
      </trkpt>
      <trkpt lat="44.30119" lon="3.5715">
        <ele>1062</ele>
        <time>2020-01-04T19:34:28Z</time>
      </trkpt>
      <trkpt lat="44.30059" lon="3.57135">
        <ele>1066</ele>
        <time>2020-01-04T19:34:42Z</time>
      </trkpt>
      <trkpt lat="44.30009" lon="3.57131">
        <ele>1070</ele>
        <time>2020-01-04T19:34:54Z</time>
      </trkpt>
      <trkpt lat="44.29981" lon="3.5712">
        <ele>1071</ele>
        <time>2020-01-04T19:35:01Z</time>
      </trkpt>
      <trkpt lat="44.29956" lon="3.57116">
        <ele>1072</ele>
        <time>2020-01-04T19:35:07Z</time>
      </trkpt>
      <trkpt lat="44.29941" lon="3.57111">
        <ele>1073</ele>
        <time>2020-01-04T19:35:10Z</time>
      </trkpt>
      <trkpt lat="44.2993" lon="3.57111">
        <ele>1073</ele>
        <time>2020-01-04T19:35:13Z</time>
      </trkpt>
      <trkpt lat="44.29919" lon="3.57116">
        <ele>1074</ele>
        <time>2020-01-04T19:35:15Z</time>
      </trkpt>
      <trkpt lat="44.29911" lon="3.57124">
        <ele>1075</ele>
        <time>2020-01-04T19:35:18Z</time>
      </trkpt>
      <trkpt lat="44.29909" lon="3.57139">
        <ele>1075</ele>
        <time>2020-01-04T19:35:20Z</time>
      </trkpt>
      <trkpt lat="44.29913" lon="3.5718">
        <ele>1076</ele>
        <time>2020-01-04T19:35:27Z</time>
      </trkpt>
      <trkpt lat="44.29911" lon="3.5721">
        <ele>1078</ele>
        <time>2020-01-04T19:35:32Z</time>
      </trkpt>
      <trkpt lat="44.29898" lon="3.57232">
        <ele>1080</ele>
        <time>2020-01-04T19:35:37Z</time>
      </trkpt>
      <trkpt lat="44.29887" lon="3.5724">
        <ele>1080</ele>
        <time>2020-01-04T19:35:40Z</time>
      </trkpt>
      <trkpt lat="44.2981" lon="3.5727">
        <ele>1082</ele>
        <time>2020-01-04T19:35:59Z</time>
      </trkpt>
      <trkpt lat="44.29748" lon="3.57287">
        <ele>1081</ele>
        <time>2020-01-04T19:36:13Z</time>
      </trkpt>
      <trkpt lat="44.29728" lon="3.57302">
        <ele>1080</ele>
        <time>2020-01-04T19:36:19Z</time>
      </trkpt>
      <trkpt lat="44.29715" lon="3.57328">
        <ele>1079</ele>
        <time>2020-01-04T19:36:24Z</time>
      </trkpt>
      <trkpt lat="44.29707" lon="3.57339">
        <ele>1079</ele>
        <time>2020-01-04T19:36:27Z</time>
      </trkpt>
      <trkpt lat="44.29675" lon="3.57365">
        <ele>1078</ele>
        <time>2020-01-04T19:36:35Z</time>
      </trkpt>
      <trkpt lat="44.29642" lon="3.57386">
        <ele>1077</ele>
        <time>2020-01-04T19:36:44Z</time>
      </trkpt>
      <trkpt lat="44.29619" lon="3.5739">
        <ele>1076</ele>
        <time>2020-01-04T19:36:49Z</time>
      </trkpt>
      <trkpt lat="44.29604" lon="3.57386">
        <ele>1076</ele>
        <time>2020-01-04T19:36:53Z</time>
      </trkpt>
      <trkpt lat="44.29582" lon="3.57378">
        <ele>1075</ele>
        <time>2020-01-04T19:36:58Z</time>
      </trkpt>
      <trkpt lat="44.29544" lon="3.57347">
        <ele>1075</ele>
        <time>2020-01-04T19:37:08Z</time>
      </trkpt>
      <trkpt lat="44.29535" lon="3.57347">
        <ele>1075</ele>
        <time>2020-01-04T19:37:10Z</time>
      </trkpt>
      <trkpt lat="44.29529" lon="3.5735">
        <ele>1075</ele>
        <time>2020-01-04T19:37:12Z</time>
      </trkpt>
      <trkpt lat="44.2952" lon="3.57371">
        <ele>1075</ele>
        <time>2020-01-04T19:37:16Z</time>
      </trkpt>
      <trkpt lat="44.2952" lon="3.57384">
        <ele>1074</ele>
        <time>2020-01-04T19:37:18Z</time>
      </trkpt>
      <trkpt lat="44.29527" lon="3.57405">
        <ele>1074</ele>
        <time>2020-01-04T19:37:22Z</time>
      </trkpt>
      <trkpt lat="44.29527" lon="3.57416">
        <ele>1074</ele>
        <time>2020-01-04T19:37:24Z</time>
      </trkpt>
      <trkpt lat="44.29531" lon="3.57433">
        <ele>1074</ele>
        <time>2020-01-04T19:37:27Z</time>
      </trkpt>
      <trkpt lat="44.29531" lon="3.57448">
        <ele>1073</ele>
        <time>2020-01-04T19:37:29Z</time>
      </trkpt>
      <trkpt lat="44.29527" lon="3.57463">
        <ele>1073</ele>
        <time>2020-01-04T19:37:32Z</time>
      </trkpt>
      <trkpt lat="44.29514" lon="3.57476">
        <ele>1073</ele>
        <time>2020-01-04T19:37:36Z</time>
      </trkpt>
      <trkpt lat="44.2949" lon="3.57487">
        <ele>1073</ele>
        <time>2020-01-04T19:37:42Z</time>
      </trkpt>
      <trkpt lat="44.2943" lon="3.57498">
        <ele>1075</ele>
        <time>2020-01-04T19:37:56Z</time>
      </trkpt>
      <trkpt lat="44.29394" lon="3.575">
        <ele>1075</ele>
        <time>2020-01-04T19:38:04Z</time>
      </trkpt>
      <trkpt lat="44.2937" lon="3.57498">
        <ele>1075</ele>
        <time>2020-01-04T19:38:10Z</time>
      </trkpt>
      <trkpt lat="44.29331" lon="3.57481">
        <ele>1074</ele>
        <time>2020-01-04T19:38:19Z</time>
      </trkpt>
      <trkpt lat="44.29318" lon="3.57481">
        <ele>1075</ele>
        <time>2020-01-04T19:38:22Z</time>
      </trkpt>
      <trkpt lat="44.29306" lon="3.57491">
        <ele>1077</ele>
        <time>2020-01-04T19:38:26Z</time>
      </trkpt>
      <trkpt lat="44.29299" lon="3.57493">
        <ele>1077</ele>
        <time>2020-01-04T19:38:27Z</time>
      </trkpt>
      <trkpt lat="44.29282" lon="3.57491">
        <ele>1078</ele>
        <time>2020-01-04T19:38:31Z</time>
      </trkpt>
      <trkpt lat="44.2926" lon="3.57493">
        <ele>1080</ele>
        <time>2020-01-04T19:38:36Z</time>
      </trkpt>
      <trkpt lat="44.29233" lon="3.57485">
        <ele>1082</ele>
        <time>2020-01-04T19:38:43Z</time>
      </trkpt>
      <trkpt lat="44.29213" lon="3.57491">
        <ele>1083</ele>
        <time>2020-01-04T19:38:48Z</time>
      </trkpt>
      <trkpt lat="44.29117" lon="3.57485">
        <ele>1088</ele>
        <time>2020-01-04T19:39:10Z</time>
      </trkpt>
      <trkpt lat="44.29106" lon="3.57489">
        <ele>1088</ele>
        <time>2020-01-04T19:39:13Z</time>
      </trkpt>
      <trkpt lat="44.29089" lon="3.57491">
        <ele>1089</ele>
        <time>2020-01-04T19:39:17Z</time>
      </trkpt>
      <trkpt lat="44.29082" lon="3.57498">
        <ele>1090</ele>
        <time>2020-01-04T19:39:19Z</time>
      </trkpt>
      <trkpt lat="44.29072" lon="3.575">
        <ele>1091</ele>
        <time>2020-01-04T19:39:21Z</time>
      </trkpt>
      <trkpt lat="44.29061" lon="3.57506">
        <ele>1091</ele>
        <time>2020-01-04T19:39:24Z</time>
      </trkpt>
      <trkpt lat="44.29014" lon="3.57517">
        <ele>1094</ele>
        <time>2020-01-04T19:39:35Z</time>
      </trkpt>
      <trkpt lat="44.29007" lon="3.57515">
        <ele>1094</ele>
        <time>2020-01-04T19:39:37Z</time>
      </trkpt>
      <trkpt lat="44.28982" lon="3.57496">
        <ele>1094</ele>
        <time>2020-01-04T19:39:43Z</time>
      </trkpt>
      <trkpt lat="44.2893" lon="3.5747">
        <ele>1092</ele>
        <time>2020-01-04T19:39:56Z</time>
      </trkpt>
      <trkpt lat="44.28913" lon="3.57472">
        <ele>1091</ele>
        <time>2020-01-04T19:40:00Z</time>
      </trkpt>
      <trkpt lat="44.2893" lon="3.5747">
        <ele>1092</ele>
        <time>2020-01-04T19:40:04Z</time>
      </trkpt>
      <trkpt lat="44.28982" lon="3.57496">
        <ele>1094</ele>
        <time>2020-01-04T19:40:17Z</time>
      </trkpt>
      <trkpt lat="44.29007" lon="3.57515">
        <ele>1094</ele>
        <time>2020-01-04T19:40:24Z</time>
      </trkpt>
      <trkpt lat="44.29014" lon="3.57517">
        <ele>1094</ele>
        <time>2020-01-04T19:40:25Z</time>
      </trkpt>
      <trkpt lat="44.29061" lon="3.57506">
        <ele>1091</ele>
        <time>2020-01-04T19:40:36Z</time>
      </trkpt>
      <trkpt lat="44.29072" lon="3.575">
        <ele>1091</ele>
        <time>2020-01-04T19:40:39Z</time>
      </trkpt>
      <trkpt lat="44.29082" lon="3.57498">
        <ele>1090</ele>
        <time>2020-01-04T19:40:42Z</time>
      </trkpt>
      <trkpt lat="44.29089" lon="3.57491">
        <ele>1089</ele>
        <time>2020-01-04T19:40:44Z</time>
      </trkpt>
      <trkpt lat="44.29106" lon="3.57489">
        <ele>1088</ele>
        <time>2020-01-04T19:40:48Z</time>
      </trkpt>
      <trkpt lat="44.29115" lon="3.57485">
        <ele>1088</ele>
        <time>2020-01-04T19:40:50Z</time>
      </trkpt>
      <trkpt lat="44.29208" lon="3.57491">
        <ele>1083</ele>
        <time>2020-01-04T19:41:12Z</time>
      </trkpt>
      <trkpt lat="44.29117" lon="3.57485">
        <ele>1088</ele>
        <time>2020-01-04T19:41:33Z</time>
      </trkpt>
      <trkpt lat="44.29106" lon="3.57489">
        <ele>1088</ele>
        <time>2020-01-04T19:41:35Z</time>
      </trkpt>
      <trkpt lat="44.29089" lon="3.57491">
        <ele>1089</ele>
        <time>2020-01-04T19:41:39Z</time>
      </trkpt>
      <trkpt lat="44.29082" lon="3.57498">
        <ele>1090</ele>
        <time>2020-01-04T19:41:41Z</time>
      </trkpt>
      <trkpt lat="44.29072" lon="3.575">
        <ele>1091</ele>
        <time>2020-01-04T19:41:44Z</time>
      </trkpt>
      <trkpt lat="44.29061" lon="3.57506">
        <ele>1091</ele>
        <time>2020-01-04T19:41:47Z</time>
      </trkpt>
      <trkpt lat="44.29014" lon="3.57517">
        <ele>1094</ele>
        <time>2020-01-04T19:41:58Z</time>
      </trkpt>
      <trkpt lat="44.29007" lon="3.57515">
        <ele>1094</ele>
        <time>2020-01-04T19:41:59Z</time>
      </trkpt>
      <trkpt lat="44.28982" lon="3.57496">
        <ele>1094</ele>
        <time>2020-01-04T19:42:06Z</time>
      </trkpt>
      <trkpt lat="44.2893" lon="3.5747">
        <ele>1092</ele>
        <time>2020-01-04T19:42:19Z</time>
      </trkpt>
      <trkpt lat="44.28913" lon="3.57472">
        <ele>1091</ele>
        <time>2020-01-04T19:42:23Z</time>
      </trkpt>
      <trkpt lat="44.28917" lon="3.57487">
        <ele>1091</ele>
        <time>2020-01-04T19:42:26Z</time>
      </trkpt>
      <trkpt lat="44.28943" lon="3.57513">
        <ele>1092</ele>
        <time>2020-01-04T19:42:33Z</time>
      </trkpt>
      <trkpt lat="44.28973" lon="3.57553">
        <ele>1092</ele>
        <time>2020-01-04T19:42:43Z</time>
      </trkpt>
      <trkpt lat="44.29001" lon="3.57601">
        <ele>1092</ele>
        <time>2020-01-04T19:42:53Z</time>
      </trkpt>
      <trkpt lat="44.29016" lon="3.5762">
        <ele>1091</ele>
        <time>2020-01-04T19:42:58Z</time>
      </trkpt>
      <trkpt lat="44.29035" lon="3.57639">
        <ele>1090</ele>
        <time>2020-01-04T19:43:03Z</time>
      </trkpt>
      <trkpt lat="44.29078" lon="3.57671">
        <ele>1090</ele>
        <time>2020-01-04T19:43:15Z</time>
      </trkpt>
      <trkpt lat="44.29132" lon="3.57721">
        <ele>1084</ele>
        <time>2020-01-04T19:43:30Z</time>
      </trkpt>
      <trkpt lat="44.2914" lon="3.57725">
        <ele>1083</ele>
        <time>2020-01-04T19:43:32Z</time>
      </trkpt>
      <trkpt lat="44.29149" lon="3.57734">
        <ele>1082</ele>
        <time>2020-01-04T19:43:34Z</time>
      </trkpt>
      <trkpt lat="44.29151" lon="3.57742">
        <ele>1082</ele>
        <time>2020-01-04T19:43:36Z</time>
      </trkpt>
      <trkpt lat="44.29155" lon="3.57747">
        <ele>1082</ele>
        <time>2020-01-04T19:43:37Z</time>
      </trkpt>
      <trkpt lat="44.29168" lon="3.57755">
        <ele>1081</ele>
        <time>2020-01-04T19:43:40Z</time>
      </trkpt>
      <trkpt lat="44.29181" lon="3.5777">
        <ele>1080</ele>
        <time>2020-01-04T19:43:44Z</time>
      </trkpt>
      <trkpt lat="44.2922" lon="3.57832">
        <ele>1081</ele>
        <time>2020-01-04T19:43:58Z</time>
      </trkpt>
      <trkpt lat="44.29239" lon="3.57877">
        <ele>1084</ele>
        <time>2020-01-04T19:44:07Z</time>
      </trkpt>
      <trkpt lat="44.29308" lon="3.57963">
        <ele>1089</ele>
        <time>2020-01-04T19:44:28Z</time>
      </trkpt>
      <trkpt lat="44.29329" lon="3.58008">
        <ele>1092</ele>
        <time>2020-01-04T19:44:37Z</time>
      </trkpt>
      <trkpt lat="44.29342" lon="3.58019">
        <ele>1091</ele>
        <time>2020-01-04T19:44:41Z</time>
      </trkpt>
      <trkpt lat="44.29355" lon="3.58051">
        <ele>1090</ele>
        <time>2020-01-04T19:44:47Z</time>
      </trkpt>
      <trkpt lat="44.29361" lon="3.58058">
        <ele>1090</ele>
        <time>2020-01-04T19:44:49Z</time>
      </trkpt>
      <trkpt lat="44.29391" lon="3.58073">
        <ele>1089</ele>
        <time>2020-01-04T19:44:56Z</time>
      </trkpt>
      <trkpt lat="44.29434" lon="3.58075">
        <ele>1089</ele>
        <time>2020-01-04T19:45:06Z</time>
      </trkpt>
      <trkpt lat="44.29464" lon="3.58068">
        <ele>1088</ele>
        <time>2020-01-04T19:45:13Z</time>
      </trkpt>
      <trkpt lat="44.29475" lon="3.58068">
        <ele>1088</ele>
        <time>2020-01-04T19:45:16Z</time>
      </trkpt>
      <trkpt lat="44.29492" lon="3.58073">
        <ele>1089</ele>
        <time>2020-01-04T19:45:20Z</time>
      </trkpt>
      <trkpt lat="44.29505" lon="3.58073">
        <ele>1089</ele>
        <time>2020-01-04T19:45:23Z</time>
      </trkpt>
      <trkpt lat="44.29522" lon="3.58079">
        <ele>1089</ele>
        <time>2020-01-04T19:45:27Z</time>
      </trkpt>
      <trkpt lat="44.29548" lon="3.58105">
        <ele>1087</ele>
        <time>2020-01-04T19:45:35Z</time>
      </trkpt>
      <trkpt lat="44.29563" lon="3.58118">
        <ele>1087</ele>
        <time>2020-01-04T19:45:39Z</time>
      </trkpt>
      <trkpt lat="44.29572" lon="3.58122">
        <ele>1087</ele>
        <time>2020-01-04T19:45:41Z</time>
      </trkpt>
      <trkpt lat="44.29585" lon="3.58137">
        <ele>1087</ele>
        <time>2020-01-04T19:45:45Z</time>
      </trkpt>
      <trkpt lat="44.29642" lon="3.58184">
        <ele>1087</ele>
        <time>2020-01-04T19:46:00Z</time>
      </trkpt>
      <trkpt lat="44.2966" lon="3.58225">
        <ele>1085</ele>
        <time>2020-01-04T19:46:08Z</time>
      </trkpt>
      <trkpt lat="44.29666" lon="3.58234">
        <ele>1085</ele>
        <time>2020-01-04T19:46:11Z</time>
      </trkpt>
      <trkpt lat="44.29672" lon="3.58257">
        <ele>1084</ele>
        <time>2020-01-04T19:46:15Z</time>
      </trkpt>
      <trkpt lat="44.29677" lon="3.58259">
        <ele>1083</ele>
        <time>2020-01-04T19:46:16Z</time>
      </trkpt>
      <trkpt lat="44.29685" lon="3.58289">
        <ele>1082</ele>
        <time>2020-01-04T19:46:21Z</time>
      </trkpt>
      <trkpt lat="44.29707" lon="3.58416">
        <ele>1076</ele>
        <time>2020-01-04T19:46:43Z</time>
      </trkpt>
      <trkpt lat="44.29705" lon="3.58444">
        <ele>1075</ele>
        <time>2020-01-04T19:46:48Z</time>
      </trkpt>
      <trkpt lat="44.29718" lon="3.58541">
        <ele>1077</ele>
        <time>2020-01-04T19:47:04Z</time>
      </trkpt>
      <trkpt lat="44.29703" lon="3.5862">
        <ele>1075</ele>
        <time>2020-01-04T19:47:18Z</time>
      </trkpt>
      <trkpt lat="44.29683" lon="3.58665">
        <ele>1071</ele>
        <time>2020-01-04T19:47:27Z</time>
      </trkpt>
      <trkpt lat="44.29666" lon="3.58725">
        <ele>1065</ele>
        <time>2020-01-04T19:47:38Z</time>
      </trkpt>
      <trkpt lat="44.29662" lon="3.58757">
        <ele>1059</ele>
        <time>2020-01-04T19:47:43Z</time>
      </trkpt>
      <trkpt lat="44.29672" lon="3.58759">
        <ele>1058</ele>
        <time>2020-01-04T19:47:45Z</time>
      </trkpt>
      <trkpt lat="44.29756" lon="3.5874">
        <ele>1056</ele>
        <time>2020-01-04T19:48:05Z</time>
      </trkpt>
      <trkpt lat="44.29797" lon="3.58736">
        <ele>1055</ele>
        <time>2020-01-04T19:48:15Z</time>
      </trkpt>
      <trkpt lat="44.29812" lon="3.5874">
        <ele>1053</ele>
        <time>2020-01-04T19:48:18Z</time>
      </trkpt>
      <trkpt lat="44.29859" lon="3.58781">
        <ele>1040</ele>
        <time>2020-01-04T19:48:31Z</time>
      </trkpt>
      <trkpt lat="44.29883" lon="3.58794">
        <ele>1040</ele>
        <time>2020-01-04T19:48:37Z</time>
      </trkpt>
      <trkpt lat="44.29891" lon="3.58802">
        <ele>1038</ele>
        <time>2020-01-04T19:48:40Z</time>
      </trkpt>
      <trkpt lat="44.29896" lon="3.58813">
        <ele>1036</ele>
        <time>2020-01-04T19:48:42Z</time>
      </trkpt>
      <trkpt lat="44.299" lon="3.58826">
        <ele>1032</ele>
        <time>2020-01-04T19:48:44Z</time>
      </trkpt>
      <trkpt lat="44.299" lon="3.58837">
        <ele>1028</ele>
        <time>2020-01-04T19:48:46Z</time>
      </trkpt>
      <trkpt lat="44.29896" lon="3.58837">
        <ele>1026</ele>
        <time>2020-01-04T19:48:47Z</time>
      </trkpt>
      <trkpt lat="44.29889" lon="3.58826">
        <ele>1029</ele>
        <time>2020-01-04T19:48:49Z</time>
      </trkpt>
      <trkpt lat="44.29876" lon="3.58815">
        <ele>1029</ele>
        <time>2020-01-04T19:48:53Z</time>
      </trkpt>
      <trkpt lat="44.29872" lon="3.58813">
        <ele>1029</ele>
        <time>2020-01-04T19:48:54Z</time>
      </trkpt>
      <trkpt lat="44.29868" lon="3.58815">
        <ele>1027</ele>
        <time>2020-01-04T19:48:55Z</time>
      </trkpt>
      <trkpt lat="44.29876" lon="3.58837">
        <ele>1020</ele>
        <time>2020-01-04T19:48:59Z</time>
      </trkpt>
      <trkpt lat="44.29876" lon="3.58843">
        <ele>1018</ele>
        <time>2020-01-04T19:49:00Z</time>
      </trkpt>
      <trkpt lat="44.29861" lon="3.58832">
        <ele>1018</ele>
        <time>2020-01-04T19:49:04Z</time>
      </trkpt>
      <trkpt lat="44.29848" lon="3.58835">
        <ele>1013</ele>
        <time>2020-01-04T19:49:07Z</time>
      </trkpt>
      <trkpt lat="44.29818" lon="3.58832">
        <ele>1009</ele>
        <time>2020-01-04T19:49:14Z</time>
      </trkpt>
      <trkpt lat="44.2981" lon="3.58837">
        <ele>1006</ele>
        <time>2020-01-04T19:49:16Z</time>
      </trkpt>
      <trkpt lat="44.29799" lon="3.58837">
        <ele>1005</ele>
        <time>2020-01-04T19:49:19Z</time>
      </trkpt>
      <trkpt lat="44.29797" lon="3.58841">
        <ele>1003</ele>
        <time>2020-01-04T19:49:20Z</time>
      </trkpt>
      <trkpt lat="44.29812" lon="3.58845">
        <ele>1002</ele>
        <time>2020-01-04T19:49:23Z</time>
      </trkpt>
      <trkpt lat="44.29821" lon="3.58852">
        <ele>1000</ele>
        <time>2020-01-04T19:49:25Z</time>
      </trkpt>
      <trkpt lat="44.2984" lon="3.58875">
        <ele>993</ele>
        <time>2020-01-04T19:49:31Z</time>
      </trkpt>
      <trkpt lat="44.2984" lon="3.5888">
        <ele>991</ele>
        <time>2020-01-04T19:49:32Z</time>
      </trkpt>
      <trkpt lat="44.29829" lon="3.58877">
        <ele>990</ele>
        <time>2020-01-04T19:49:35Z</time>
      </trkpt>
      <trkpt lat="44.29816" lon="3.58877">
        <ele>988</ele>
        <time>2020-01-04T19:49:38Z</time>
      </trkpt>
      <trkpt lat="44.29756" lon="3.58895">
        <ele>970</ele>
        <time>2020-01-04T19:49:52Z</time>
      </trkpt>
      <trkpt lat="44.29741" lon="3.5889">
        <ele>973</ele>
        <time>2020-01-04T19:49:56Z</time>
      </trkpt>
      <trkpt lat="44.29733" lon="3.58892">
        <ele>973</ele>
        <time>2020-01-04T19:49:58Z</time>
      </trkpt>
      <trkpt lat="44.29724" lon="3.58899">
        <ele>971</ele>
        <time>2020-01-04T19:50:00Z</time>
      </trkpt>
      <trkpt lat="44.29718" lon="3.58922">
        <ele>959</ele>
        <time>2020-01-04T19:50:04Z</time>
      </trkpt>
      <trkpt lat="44.29703" lon="3.5894">
        <ele>951</ele>
        <time>2020-01-04T19:50:09Z</time>
      </trkpt>
      <trkpt lat="44.29694" lon="3.58944">
        <ele>950</ele>
        <time>2020-01-04T19:50:11Z</time>
      </trkpt>
      <trkpt lat="44.29672" lon="3.58946">
        <ele>952</ele>
        <time>2020-01-04T19:50:16Z</time>
      </trkpt>
      <trkpt lat="44.29672" lon="3.58953">
        <ele>948</ele>
        <time>2020-01-04T19:50:17Z</time>
      </trkpt>
      <trkpt lat="44.29672" lon="3.58946">
        <ele>952</ele>
        <time>2020-01-04T19:50:18Z</time>
      </trkpt>
      <trkpt lat="44.29657" lon="3.5895">
        <ele>949</ele>
        <time>2020-01-04T19:50:22Z</time>
      </trkpt>
      <trkpt lat="44.29647" lon="3.58959">
        <ele>942</ele>
        <time>2020-01-04T19:50:25Z</time>
      </trkpt>
      <trkpt lat="44.29642" lon="3.58959">
        <ele>941</ele>
        <time>2020-01-04T19:50:26Z</time>
      </trkpt>
      <trkpt lat="44.29638" lon="3.58957">
        <ele>941</ele>
        <time>2020-01-04T19:50:27Z</time>
      </trkpt>
      <trkpt lat="44.29636" lon="3.5895">
        <ele>945</ele>
        <time>2020-01-04T19:50:28Z</time>
      </trkpt>
      <trkpt lat="44.29632" lon="3.5895">
        <ele>944</ele>
        <time>2020-01-04T19:50:29Z</time>
      </trkpt>
      <trkpt lat="44.29632" lon="3.58965">
        <ele>936</ele>
        <time>2020-01-04T19:50:32Z</time>
      </trkpt>
      <trkpt lat="44.29623" lon="3.58957">
        <ele>939</ele>
        <time>2020-01-04T19:50:34Z</time>
      </trkpt>
      <trkpt lat="44.29617" lon="3.58955">
        <ele>939</ele>
        <time>2020-01-04T19:50:36Z</time>
      </trkpt>
      <trkpt lat="44.29597" lon="3.58955">
        <ele>935</ele>
        <time>2020-01-04T19:50:40Z</time>
      </trkpt>
      <trkpt lat="44.2961" lon="3.58968">
        <ele>930</ele>
        <time>2020-01-04T19:50:44Z</time>
      </trkpt>
      <trkpt lat="44.29621" lon="3.58989">
        <ele>920</ele>
        <time>2020-01-04T19:50:48Z</time>
      </trkpt>
      <trkpt lat="44.29623" lon="3.58998">
        <ele>915</ele>
        <time>2020-01-04T19:50:50Z</time>
      </trkpt>
      <trkpt lat="44.29621" lon="3.59008">
        <ele>908</ele>
        <time>2020-01-04T19:50:52Z</time>
      </trkpt>
      <trkpt lat="44.2961" lon="3.58991">
        <ele>916</ele>
        <time>2020-01-04T19:50:56Z</time>
      </trkpt>
      <trkpt lat="44.29595" lon="3.58983">
        <ele>918</ele>
        <time>2020-01-04T19:50:59Z</time>
      </trkpt>
      <trkpt lat="44.29574" lon="3.5898">
        <ele>915</ele>
        <time>2020-01-04T19:51:04Z</time>
      </trkpt>
      <trkpt lat="44.29565" lon="3.58983">
        <ele>911</ele>
        <time>2020-01-04T19:51:06Z</time>
      </trkpt>
      <trkpt lat="44.29554" lon="3.58978">
        <ele>912</ele>
        <time>2020-01-04T19:51:09Z</time>
      </trkpt>
      <trkpt lat="44.2955" lon="3.5898">
        <ele>910</ele>
        <time>2020-01-04T19:51:10Z</time>
      </trkpt>
      <trkpt lat="44.29544" lon="3.58978">
        <ele>910</ele>
        <time>2020-01-04T19:51:11Z</time>
      </trkpt>
      <trkpt lat="44.29535" lon="3.5898">
        <ele>907</ele>
        <time>2020-01-04T19:51:14Z</time>
      </trkpt>
      <trkpt lat="44.29537" lon="3.58985">
        <ele>904</ele>
        <time>2020-01-04T19:51:15Z</time>
      </trkpt>
      <trkpt lat="44.29572" lon="3.5901">
        <ele>896</ele>
        <time>2020-01-04T19:51:24Z</time>
      </trkpt>
      <trkpt lat="44.29578" lon="3.5901">
        <ele>898</ele>
        <time>2020-01-04T19:51:25Z</time>
      </trkpt>
      <trkpt lat="44.2958" lon="3.59015">
        <ele>895</ele>
        <time>2020-01-04T19:51:26Z</time>
      </trkpt>
      <trkpt lat="44.29563" lon="3.59021">
        <ele>888</ele>
        <time>2020-01-04T19:51:30Z</time>
      </trkpt>
      <trkpt lat="44.29537" lon="3.59019">
        <ele>883</ele>
        <time>2020-01-04T19:51:36Z</time>
      </trkpt>
      <trkpt lat="44.29501" lon="3.59038">
        <ele>864</ele>
        <time>2020-01-04T19:51:45Z</time>
      </trkpt>
      <trkpt lat="44.29464" lon="3.5904">
        <ele>857</ele>
        <time>2020-01-04T19:51:54Z</time>
      </trkpt>
      <trkpt lat="44.2946" lon="3.59043">
        <ele>855</ele>
        <time>2020-01-04T19:51:55Z</time>
      </trkpt>
      <trkpt lat="44.29436" lon="3.59047">
        <ele>849</ele>
        <time>2020-01-04T19:52:01Z</time>
      </trkpt>
      <trkpt lat="44.29432" lon="3.59051">
        <ele>846</ele>
        <time>2020-01-04T19:52:02Z</time>
      </trkpt>
      <trkpt lat="44.29413" lon="3.59053">
        <ele>842</ele>
        <time>2020-01-04T19:52:06Z</time>
      </trkpt>
      <trkpt lat="44.29409" lon="3.59058">
        <ele>838</ele>
        <time>2020-01-04T19:52:07Z</time>
      </trkpt>
      <trkpt lat="44.29398" lon="3.5906">
        <ele>834</ele>
        <time>2020-01-04T19:52:10Z</time>
      </trkpt>
      <trkpt lat="44.29391" lon="3.59058">
        <ele>833</ele>
        <time>2020-01-04T19:52:12Z</time>
      </trkpt>
      <trkpt lat="44.29387" lon="3.5906">
        <ele>831</ele>
        <time>2020-01-04T19:52:13Z</time>
      </trkpt>
      <trkpt lat="44.29387" lon="3.59064">
        <ele>830</ele>
        <time>2020-01-04T19:52:13Z</time>
      </trkpt>
      <trkpt lat="44.29398" lon="3.59079">
        <ele>826</ele>
        <time>2020-01-04T19:52:17Z</time>
      </trkpt>
      <trkpt lat="44.29411" lon="3.59079">
        <ele>829</ele>
        <time>2020-01-04T19:52:20Z</time>
      </trkpt>
      <trkpt lat="44.29413" lon="3.59086">
        <ele>827</ele>
        <time>2020-01-04T19:52:21Z</time>
      </trkpt>
      <trkpt lat="44.29406" lon="3.59092">
        <ele>824</ele>
        <time>2020-01-04T19:52:23Z</time>
      </trkpt>
      <trkpt lat="44.29396" lon="3.59094">
        <ele>821</ele>
        <time>2020-01-04T19:52:26Z</time>
      </trkpt>
      <trkpt lat="44.29391" lon="3.59098">
        <ele>820</ele>
        <time>2020-01-04T19:52:27Z</time>
      </trkpt>
      <trkpt lat="44.29391" lon="3.59103">
        <ele>819</ele>
        <time>2020-01-04T19:52:28Z</time>
      </trkpt>
      <trkpt lat="44.29411" lon="3.59116">
        <ele>819</ele>
        <time>2020-01-04T19:52:33Z</time>
      </trkpt>
      <trkpt lat="44.29454" lon="3.59176">
        <ele>804</ele>
        <time>2020-01-04T19:52:47Z</time>
      </trkpt>
      <trkpt lat="44.29484" lon="3.59171">
        <ele>804</ele>
        <time>2020-01-04T19:52:54Z</time>
      </trkpt>
      <trkpt lat="44.29507" lon="3.59146">
        <ele>814</ele>
        <time>2020-01-04T19:53:01Z</time>
      </trkpt>
      <trkpt lat="44.29524" lon="3.59135">
        <ele>821</ele>
        <time>2020-01-04T19:53:05Z</time>
      </trkpt>
      <trkpt lat="44.29533" lon="3.59135">
        <ele>822</ele>
        <time>2020-01-04T19:53:07Z</time>
      </trkpt>
      <trkpt lat="44.29539" lon="3.59137">
        <ele>822</ele>
        <time>2020-01-04T19:53:09Z</time>
      </trkpt>
      <trkpt lat="44.29575" lon="3.59166">
        <ele>813</ele>
        <time>2020-01-04T19:53:19Z</time>
      </trkpt>
      <trkpt lat="44.29567" lon="3.59159">
        <ele>816</ele>
        <time>2020-01-04T19:53:21Z</time>
      </trkpt>
      <trkpt lat="44.29591" lon="3.59182">
        <ele>809</ele>
        <time>2020-01-04T19:53:28Z</time>
      </trkpt>
      <trkpt lat="44.29606" lon="3.59206">
        <ele>800</ele>
        <time>2020-01-04T19:53:33Z</time>
      </trkpt>
      <trkpt lat="44.29612" lon="3.5921">
        <ele>799</ele>
        <time>2020-01-04T19:53:34Z</time>
      </trkpt>
      <trkpt lat="44.29632" lon="3.59212">
        <ele>799</ele>
        <time>2020-01-04T19:53:39Z</time>
      </trkpt>
      <trkpt lat="44.29688" lon="3.59195">
        <ele>807</ele>
        <time>2020-01-04T19:53:53Z</time>
      </trkpt>
      <trkpt lat="44.29703" lon="3.59195">
        <ele>807</ele>
        <time>2020-01-04T19:53:56Z</time>
      </trkpt>
      <trkpt lat="44.29715" lon="3.59201">
        <ele>805</ele>
        <time>2020-01-04T19:53:59Z</time>
      </trkpt>
      <trkpt lat="44.29763" lon="3.59242">
        <ele>796</ele>
        <time>2020-01-04T19:54:12Z</time>
      </trkpt>
      <trkpt lat="44.29771" lon="3.59246">
        <ele>798</ele>
        <time>2020-01-04T19:54:14Z</time>
      </trkpt>
      <trkpt lat="44.29808" lon="3.59285">
        <ele>802</ele>
        <time>2020-01-04T19:54:25Z</time>
      </trkpt>
      <trkpt lat="44.29851" lon="3.59362">
        <ele>793</ele>
        <time>2020-01-04T19:54:41Z</time>
      </trkpt>
      <trkpt lat="44.29861" lon="3.59377">
        <ele>791</ele>
        <time>2020-01-04T19:54:45Z</time>
      </trkpt>
      <trkpt lat="44.29878" lon="3.59395">
        <ele>788</ele>
        <time>2020-01-04T19:54:50Z</time>
      </trkpt>
      <trkpt lat="44.29902" lon="3.59407">
        <ele>788</ele>
        <time>2020-01-04T19:54:56Z</time>
      </trkpt>
      <trkpt lat="44.29934" lon="3.59403">
        <ele>791</ele>
        <time>2020-01-04T19:55:03Z</time>
      </trkpt>
      <trkpt lat="44.29956" lon="3.59405">
        <ele>789</ele>
        <time>2020-01-04T19:55:08Z</time>
      </trkpt>
      <trkpt lat="44.29994" lon="3.59418">
        <ele>782</ele>
        <time>2020-01-04T19:55:17Z</time>
      </trkpt>
      <trkpt lat="44.30007" lon="3.59416">
        <ele>781</ele>
        <time>2020-01-04T19:55:20Z</time>
      </trkpt>
      <trkpt lat="44.30024" lon="3.59407">
        <ele>782</ele>
        <time>2020-01-04T19:55:25Z</time>
      </trkpt>
      <trkpt lat="44.30067" lon="3.59375">
        <ele>784</ele>
        <time>2020-01-04T19:55:36Z</time>
      </trkpt>
      <trkpt lat="44.30084" lon="3.59367">
        <ele>782</ele>
        <time>2020-01-04T19:55:40Z</time>
      </trkpt>
      <trkpt lat="44.30108" lon="3.59339">
        <ele>780</ele>
        <time>2020-01-04T19:55:48Z</time>
      </trkpt>
      <trkpt lat="44.30121" lon="3.59296">
        <ele>783</ele>
        <time>2020-01-04T19:55:55Z</time>
      </trkpt>
      <trkpt lat="44.3013" lon="3.59283">
        <ele>780</ele>
        <time>2020-01-04T19:55:58Z</time>
      </trkpt>
      <trkpt lat="44.30142" lon="3.59227">
        <ele>783</ele>
        <time>2020-01-04T19:56:08Z</time>
      </trkpt>
      <trkpt lat="44.30153" lon="3.5921">
        <ele>780</ele>
        <time>2020-01-04T19:56:12Z</time>
      </trkpt>
      <trkpt lat="44.30172" lon="3.59191">
        <ele>775</ele>
        <time>2020-01-04T19:56:17Z</time>
      </trkpt>
      <trkpt lat="44.30201" lon="3.59168">
        <ele>772</ele>
        <time>2020-01-04T19:56:25Z</time>
      </trkpt>
      <trkpt lat="44.30222" lon="3.59161">
        <ele>768</ele>
        <time>2020-01-04T19:56:30Z</time>
      </trkpt>
      <trkpt lat="44.3026" lon="3.59159">
        <ele>758</ele>
        <time>2020-01-04T19:56:39Z</time>
      </trkpt>
      <trkpt lat="44.30271" lon="3.59156">
        <ele>756</ele>
        <time>2020-01-04T19:56:42Z</time>
      </trkpt>
      <trkpt lat="44.30286" lon="3.59143">
        <ele>756</ele>
        <time>2020-01-04T19:56:46Z</time>
      </trkpt>
      <trkpt lat="44.3034" lon="3.59086">
        <ele>753</ele>
        <time>2020-01-04T19:57:02Z</time>
      </trkpt>
      <trkpt lat="44.30406" lon="3.59025">
        <ele>755</ele>
        <time>2020-01-04T19:57:20Z</time>
      </trkpt>
      <trkpt lat="44.3043" lon="3.59021">
        <ele>756</ele>
        <time>2020-01-04T19:57:26Z</time>
      </trkpt>
      <trkpt lat="44.30439" lon="3.59023">
        <ele>757</ele>
        <time>2020-01-04T19:57:28Z</time>
      </trkpt>
      <trkpt lat="44.30462" lon="3.59036">
        <ele>756</ele>
        <time>2020-01-04T19:57:34Z</time>
      </trkpt>
      <trkpt lat="44.30471" lon="3.59049">
        <ele>754</ele>
        <time>2020-01-04T19:57:37Z</time>
      </trkpt>
      <trkpt lat="44.30479" lon="3.59056">
        <ele>753</ele>
        <time>2020-01-04T19:57:39Z</time>
      </trkpt>
      <trkpt lat="44.30488" lon="3.59081">
        <ele>746</ele>
        <time>2020-01-04T19:57:44Z</time>
      </trkpt>
      <trkpt lat="44.30499" lon="3.5909">
        <ele>745</ele>
        <time>2020-01-04T19:57:47Z</time>
      </trkpt>
      <trkpt lat="44.30518" lon="3.59118">
        <ele>745</ele>
        <time>2020-01-04T19:57:53Z</time>
      </trkpt>
      <trkpt lat="44.30526" lon="3.59124">
        <ele>747</ele>
        <time>2020-01-04T19:57:55Z</time>
      </trkpt>
      <trkpt lat="44.30533" lon="3.59148">
        <ele>743</ele>
        <time>2020-01-04T19:58:00Z</time>
      </trkpt>
      <trkpt lat="44.30541" lon="3.59162">
        <ele>742</ele>
        <time>2020-01-04T19:58:03Z</time>
      </trkpt>
      <trkpt lat="44.30533" lon="3.59148">
        <ele>743</ele>
        <time>2020-01-04T19:58:06Z</time>
      </trkpt>
      <trkpt lat="44.30567" lon="3.59204">
        <ele>742</ele>
        <time>2020-01-04T19:58:18Z</time>
      </trkpt>
      <trkpt lat="44.30584" lon="3.59227">
        <ele>744</ele>
        <time>2020-01-04T19:58:23Z</time>
      </trkpt>
      <trkpt lat="44.30638" lon="3.59317">
        <ele>735</ele>
        <time>2020-01-04T19:58:43Z</time>
      </trkpt>
      <trkpt lat="44.30645" lon="3.59322">
        <ele>736</ele>
        <time>2020-01-04T19:58:45Z</time>
      </trkpt>
      <trkpt lat="44.30705" lon="3.59309">
        <ele>742</ele>
        <time>2020-01-04T19:58:59Z</time>
      </trkpt>
      <trkpt lat="44.30812" lon="3.59317">
        <ele>721</ele>
        <time>2020-01-04T19:59:24Z</time>
      </trkpt>
      <trkpt lat="44.3082" lon="3.59315">
        <ele>720</ele>
        <time>2020-01-04T19:59:26Z</time>
      </trkpt>
      <trkpt lat="44.30823" lon="3.59319">
        <ele>718</ele>
        <time>2020-01-04T19:59:27Z</time>
      </trkpt>
      <trkpt lat="44.3082" lon="3.59324">
        <ele>718</ele>
        <time>2020-01-04T19:59:28Z</time>
      </trkpt>
      <trkpt lat="44.30799" lon="3.59341">
        <ele>719</ele>
        <time>2020-01-04T19:59:34Z</time>
      </trkpt>
      <trkpt lat="44.30801" lon="3.59345">
        <ele>718</ele>
        <time>2020-01-04T19:59:34Z</time>
      </trkpt>
      <trkpt lat="44.30829" lon="3.59343">
        <ele>713</ele>
        <time>2020-01-04T19:59:41Z</time>
      </trkpt>
      <trkpt lat="44.30838" lon="3.59339">
        <ele>711</ele>
        <time>2020-01-04T19:59:43Z</time>
      </trkpt>
      <trkpt lat="44.30846" lon="3.5933">
        <ele>709</ele>
        <time>2020-01-04T19:59:46Z</time>
      </trkpt>
      <trkpt lat="44.30846" lon="3.59362">
        <ele>703</ele>
        <time>2020-01-04T19:59:51Z</time>
      </trkpt>
      <trkpt lat="44.3084" lon="3.59373">
        <ele>703</ele>
        <time>2020-01-04T19:59:53Z</time>
      </trkpt>
      <trkpt lat="44.30831" lon="3.59382">
        <ele>704</ele>
        <time>2020-01-04T19:59:56Z</time>
      </trkpt>
      <trkpt lat="44.30797" lon="3.59399">
        <ele>703</ele>
        <time>2020-01-04T20:00:04Z</time>
      </trkpt>
      <trkpt lat="44.30797" lon="3.59405">
        <ele>701</ele>
        <time>2020-01-04T20:00:05Z</time>
      </trkpt>
      <trkpt lat="44.30825" lon="3.59412">
        <ele>698</ele>
        <time>2020-01-04T20:00:12Z</time>
      </trkpt>
      <trkpt lat="44.30835" lon="3.5941">
        <ele>698</ele>
        <time>2020-01-04T20:00:14Z</time>
      </trkpt>
      <trkpt lat="44.30872" lon="3.59392">
        <ele>686</ele>
        <time>2020-01-04T20:00:23Z</time>
      </trkpt>
      <trkpt lat="44.30883" lon="3.5939">
        <ele>682</ele>
        <time>2020-01-04T20:00:26Z</time>
      </trkpt>
      <trkpt lat="44.30891" lon="3.59384">
        <ele>680</ele>
        <time>2020-01-04T20:00:28Z</time>
      </trkpt>
      <trkpt lat="44.30889" lon="3.59392">
        <ele>680</ele>
        <time>2020-01-04T20:00:30Z</time>
      </trkpt>
      <trkpt lat="44.30878" lon="3.5941">
        <ele>681</ele>
        <time>2020-01-04T20:00:33Z</time>
      </trkpt>
      <trkpt lat="44.30863" lon="3.59427">
        <ele>682</ele>
        <time>2020-01-04T20:00:38Z</time>
      </trkpt>
      <trkpt lat="44.30868" lon="3.59429">
        <ele>679</ele>
        <time>2020-01-04T20:00:39Z</time>
      </trkpt>
      <trkpt lat="44.30904" lon="3.59405">
        <ele>672</ele>
        <time>2020-01-04T20:00:49Z</time>
      </trkpt>
      <trkpt lat="44.30913" lon="3.59384">
        <ele>671</ele>
        <time>2020-01-04T20:00:53Z</time>
      </trkpt>
      <trkpt lat="44.30915" lon="3.59373">
        <ele>672</ele>
        <time>2020-01-04T20:00:55Z</time>
      </trkpt>
      <trkpt lat="44.30919" lon="3.59375">
        <ele>670</ele>
        <time>2020-01-04T20:00:56Z</time>
      </trkpt>
      <trkpt lat="44.30919" lon="3.59399">
        <ele>667</ele>
        <time>2020-01-04T20:01:00Z</time>
      </trkpt>
      <trkpt lat="44.30915" lon="3.59435">
        <ele>661</ele>
        <time>2020-01-04T20:01:06Z</time>
      </trkpt>
      <trkpt lat="44.30908" lon="3.59442">
        <ele>661</ele>
        <time>2020-01-04T20:01:08Z</time>
      </trkpt>
      <trkpt lat="44.30911" lon="3.59446">
        <ele>659</ele>
        <time>2020-01-04T20:01:09Z</time>
      </trkpt>
      <trkpt lat="44.30915" lon="3.59446">
        <ele>657</ele>
        <time>2020-01-04T20:01:10Z</time>
      </trkpt>
      <trkpt lat="44.30928" lon="3.59437">
        <ele>655</ele>
        <time>2020-01-04T20:01:13Z</time>
      </trkpt>
      <trkpt lat="44.30954" lon="3.59392">
        <ele>654</ele>
        <time>2020-01-04T20:01:23Z</time>
      </trkpt>
      <trkpt lat="44.30962" lon="3.59371">
        <ele>654</ele>
        <time>2020-01-04T20:01:27Z</time>
      </trkpt>
      <trkpt lat="44.30966" lon="3.59341">
        <ele>658</ele>
        <time>2020-01-04T20:01:32Z</time>
      </trkpt>
      <trkpt lat="44.30973" lon="3.59322">
        <ele>659</ele>
        <time>2020-01-04T20:01:35Z</time>
      </trkpt>
      <trkpt lat="44.30977" lon="3.59322">
        <ele>658</ele>
        <time>2020-01-04T20:01:36Z</time>
      </trkpt>
      <trkpt lat="44.30977" lon="3.59369">
        <ele>649</ele>
        <time>2020-01-04T20:01:44Z</time>
      </trkpt>
      <trkpt lat="44.30981" lon="3.59416">
        <ele>638</ele>
        <time>2020-01-04T20:01:52Z</time>
      </trkpt>
      <trkpt lat="44.30977" lon="3.59452">
        <ele>632</ele>
        <time>2020-01-04T20:01:58Z</time>
      </trkpt>
      <trkpt lat="44.30962" lon="3.59504">
        <ele>627</ele>
        <time>2020-01-04T20:02:07Z</time>
      </trkpt>
      <trkpt lat="44.30973" lon="3.59495">
        <ele>625</ele>
        <time>2020-01-04T20:02:10Z</time>
      </trkpt>
      <trkpt lat="44.30981" lon="3.59483">
        <ele>625</ele>
        <time>2020-01-04T20:02:13Z</time>
      </trkpt>
      <trkpt lat="44.31003" lon="3.59444">
        <ele>625</ele>
        <time>2020-01-04T20:02:21Z</time>
      </trkpt>
      <trkpt lat="44.31007" lon="3.59425">
        <ele>629</ele>
        <time>2020-01-04T20:02:25Z</time>
      </trkpt>
      <trkpt lat="44.31016" lon="3.59416">
        <ele>632</ele>
        <time>2020-01-04T20:02:27Z</time>
      </trkpt>
      <trkpt lat="44.31046" lon="3.59414">
        <ele>636</ele>
        <time>2020-01-04T20:02:34Z</time>
      </trkpt>
      <trkpt lat="44.31069" lon="3.59427">
        <ele>635</ele>
        <time>2020-01-04T20:02:40Z</time>
      </trkpt>
      <trkpt lat="44.31114" lon="3.59461">
        <ele>627</ele>
        <time>2020-01-04T20:02:52Z</time>
      </trkpt>
      <trkpt lat="44.31106" lon="3.59455">
        <ele>628</ele>
        <time>2020-01-04T20:02:54Z</time>
      </trkpt>
      <trkpt lat="44.31194" lon="3.59397">
        <ele>644</ele>
        <time>2020-01-04T20:03:17Z</time>
      </trkpt>
      <trkpt lat="44.312" lon="3.59388">
        <ele>647</ele>
        <time>2020-01-04T20:03:19Z</time>
      </trkpt>
      <trkpt lat="44.31205" lon="3.59386">
        <ele>648</ele>
        <time>2020-01-04T20:03:20Z</time>
      </trkpt>
      <trkpt lat="44.31209" lon="3.59388">
        <ele>647</ele>
        <time>2020-01-04T20:03:21Z</time>
      </trkpt>
      <trkpt lat="44.31213" lon="3.59399">
        <ele>645</ele>
        <time>2020-01-04T20:03:23Z</time>
      </trkpt>
      <trkpt lat="44.31245" lon="3.59457">
        <ele>631</ele>
        <time>2020-01-04T20:03:35Z</time>
      </trkpt>
      <trkpt lat="44.31286" lon="3.59508">
        <ele>626</ele>
        <time>2020-01-04T20:03:48Z</time>
      </trkpt>
      <trkpt lat="44.31299" lon="3.59519">
        <ele>626</ele>
        <time>2020-01-04T20:03:52Z</time>
      </trkpt>
      <trkpt lat="44.31391" lon="3.59573">
        <ele>623</ele>
        <time>2020-01-04T20:04:15Z</time>
      </trkpt>
      <trkpt lat="44.31421" lon="3.59596">
        <ele>616</ele>
        <time>2020-01-04T20:04:23Z</time>
      </trkpt>
      <trkpt lat="44.31419" lon="3.59601">
        <ele>614</ele>
        <time>2020-01-04T20:04:24Z</time>
      </trkpt>
      <trkpt lat="44.31449" lon="3.59624">
        <ele>606</ele>
        <time>2020-01-04T20:04:32Z</time>
      </trkpt>
      <trkpt lat="44.31466" lon="3.59632">
        <ele>603</ele>
        <time>2020-01-04T20:04:36Z</time>
      </trkpt>
      <trkpt lat="44.31472" lon="3.59632">
        <ele>603</ele>
        <time>2020-01-04T20:04:38Z</time>
      </trkpt>
      <trkpt lat="44.31479" lon="3.59627">
        <ele>605</ele>
        <time>2020-01-04T20:04:39Z</time>
      </trkpt>
      <trkpt lat="44.31482" lon="3.59628">
        <ele>604</ele>
        <time>2020-01-04T20:04:40Z</time>
      </trkpt>
      <trkpt lat="44.315" lon="3.59665">
        <ele>594</ele>
        <time>2020-01-04T20:04:48Z</time>
      </trkpt>
      <trkpt lat="44.31507" lon="3.59687">
        <ele>589</ele>
        <time>2020-01-04T20:04:52Z</time>
      </trkpt>
      <trkpt lat="44.31519" lon="3.59703">
        <ele>585</ele>
        <time>2020-01-04T20:04:56Z</time>
      </trkpt>
      <trkpt lat="44.31531" lon="3.59709">
        <ele>584</ele>
        <time>2020-01-04T20:04:59Z</time>
      </trkpt>
      <trkpt lat="44.31559" lon="3.59714">
        <ele>584</ele>
        <time>2020-01-04T20:05:05Z</time>
      </trkpt>
      <trkpt lat="44.31574" lon="3.59729">
        <ele>581</ele>
        <time>2020-01-04T20:05:09Z</time>
      </trkpt>
      <trkpt lat="44.31585" lon="3.59755">
        <ele>574</ele>
        <time>2020-01-04T20:05:14Z</time>
      </trkpt>
      <trkpt lat="44.31596" lon="3.59768">
        <ele>570</ele>
        <time>2020-01-04T20:05:18Z</time>
      </trkpt>
      <trkpt lat="44.31586" lon="3.59755">
        <ele>574</ele>
        <time>2020-01-04T20:05:21Z</time>
      </trkpt>
      <trkpt lat="44.31596" lon="3.59768">
        <ele>570</ele>
        <time>2020-01-04T20:05:24Z</time>
      </trkpt>
      <trkpt lat="44.31608" lon="3.59776">
        <ele>568</ele>
        <time>2020-01-04T20:05:27Z</time>
      </trkpt>
      <trkpt lat="44.31628" lon="3.59784">
        <ele>565</ele>
        <time>2020-01-04T20:05:32Z</time>
      </trkpt>
      <trkpt lat="44.31642" lon="3.59795">
        <ele>561</ele>
        <time>2020-01-04T20:05:36Z</time>
      </trkpt>
      <trkpt lat="44.31653" lon="3.598">
        <ele>559</ele>
        <time>2020-01-04T20:05:39Z</time>
      </trkpt>
      <trkpt lat="44.31659" lon="3.59809">
        <ele>557</ele>
        <time>2020-01-04T20:05:41Z</time>
      </trkpt>
      <trkpt lat="44.31687" lon="3.59809">
        <ele>555</ele>
        <time>2020-01-04T20:05:47Z</time>
      </trkpt>
      <trkpt lat="44.31775" lon="3.59802">
        <ele>552</ele>
        <time>2020-01-04T20:06:08Z</time>
      </trkpt>
      <trkpt lat="44.31809" lon="3.59797">
        <ele>550</ele>
        <time>2020-01-04T20:06:16Z</time>
      </trkpt>
      <trkpt lat="44.3187" lon="3.59782">
        <ele>549</ele>
        <time>2020-01-04T20:06:30Z</time>
      </trkpt>
      <trkpt lat="44.31882" lon="3.5979">
        <ele>548</ele>
        <time>2020-01-04T20:06:33Z</time>
      </trkpt>
      <trkpt lat="44.31885" lon="3.59799">
        <ele>548</ele>
        <time>2020-01-04T20:06:35Z</time>
      </trkpt>
      <trkpt lat="44.31892" lon="3.59801">
        <ele>548</ele>
        <time>2020-01-04T20:06:37Z</time>
      </trkpt>
      <trkpt lat="44.31899" lon="3.59796">
        <ele>548</ele>
        <time>2020-01-04T20:06:39Z</time>
      </trkpt>
      <trkpt lat="44.319" lon="3.59789">
        <ele>548</ele>
        <time>2020-01-04T20:06:40Z</time>
      </trkpt>
      <trkpt lat="44.31911" lon="3.59772">
        <ele>548</ele>
        <time>2020-01-04T20:06:44Z</time>
      </trkpt>
      <trkpt lat="44.31981" lon="3.59748">
        <ele>549</ele>
        <time>2020-01-04T20:07:00Z</time>
      </trkpt>
      <trkpt lat="44.32112" lon="3.59662">
        <ele>549</ele>
        <time>2020-01-04T20:07:34Z</time>
      </trkpt>
      <trkpt lat="44.32124" lon="3.59657">
        <ele>550</ele>
        <time>2020-01-04T20:07:37Z</time>
      </trkpt>
      <trkpt lat="44.32209" lon="3.59645">
        <ele>549</ele>
        <time>2020-01-04T20:07:57Z</time>
      </trkpt>
      <trkpt lat="44.32287" lon="3.59625">
        <ele>548</ele>
        <time>2020-01-04T20:08:16Z</time>
      </trkpt>
      <trkpt lat="44.3232" lon="3.5962">
        <ele>548</ele>
        <time>2020-01-04T20:08:23Z</time>
      </trkpt>
      <trkpt lat="44.32333" lon="3.59615">
        <ele>548</ele>
        <time>2020-01-04T20:08:26Z</time>
      </trkpt>
      <trkpt lat="44.32462" lon="3.59515">
        <ele>548</ele>
        <time>2020-01-04T20:09:01Z</time>
      </trkpt>
      <trkpt lat="44.3251" lon="3.59475">
        <ele>548</ele>
        <time>2020-01-04T20:09:14Z</time>
      </trkpt>
      <trkpt lat="44.32641" lon="3.59376">
        <ele>546</ele>
        <time>2020-01-04T20:09:49Z</time>
      </trkpt>
      <trkpt lat="44.32723" lon="3.59308">
        <ele>546</ele>
        <time>2020-01-04T20:10:11Z</time>
      </trkpt>
      <trkpt lat="44.32793" lon="3.59256">
        <ele>545</ele>
        <time>2020-01-04T20:10:30Z</time>
      </trkpt>
      <trkpt lat="44.32862" lon="3.592">
        <ele>545</ele>
        <time>2020-01-04T20:10:48Z</time>
      </trkpt>
      <trkpt lat="44.32871" lon="3.5919">
        <ele>545</ele>
        <time>2020-01-04T20:10:51Z</time>
      </trkpt>
      <trkpt lat="44.32876" lon="3.59179">
        <ele>545</ele>
        <time>2020-01-04T20:10:53Z</time>
      </trkpt>
      <trkpt lat="44.32884" lon="3.59181">
        <ele>544</ele>
        <time>2020-01-04T20:10:55Z</time>
      </trkpt>
      <trkpt lat="44.3289" lon="3.59171">
        <ele>544</ele>
        <time>2020-01-04T20:10:57Z</time>
      </trkpt>
      <trkpt lat="44.32907" lon="3.59163">
        <ele>544</ele>
        <time>2020-01-04T20:11:01Z</time>
      </trkpt>
      <trkpt lat="44.33042" lon="3.59061">
        <ele>543</ele>
        <time>2020-01-04T20:11:37Z</time>
      </trkpt>
      <trkpt lat="44.33053" lon="3.59056">
        <ele>543</ele>
        <time>2020-01-04T20:11:40Z</time>
      </trkpt>
      <trkpt lat="44.33079" lon="3.5905">
        <ele>542</ele>
        <time>2020-01-04T20:11:46Z</time>
      </trkpt>
      <trkpt lat="44.331" lon="3.59056">
        <ele>543</ele>
        <time>2020-01-04T20:11:51Z</time>
      </trkpt>
      <trkpt lat="44.3311" lon="3.59064">
        <ele>544</ele>
        <time>2020-01-04T20:11:54Z</time>
      </trkpt>
      <trkpt lat="44.33143" lon="3.59109">
        <ele>553</ele>
        <time>2020-01-04T20:12:04Z</time>
      </trkpt>
      <trkpt lat="44.33145" lon="3.59132">
        <ele>558</ele>
        <time>2020-01-04T20:12:08Z</time>
      </trkpt>
      <trkpt lat="44.33155" lon="3.59121">
        <ele>558</ele>
        <time>2020-01-04T20:12:11Z</time>
      </trkpt>
      <trkpt lat="44.3316" lon="3.59126">
        <ele>560</ele>
        <time>2020-01-04T20:12:13Z</time>
      </trkpt>
      <trkpt lat="44.33164" lon="3.59125">
        <ele>561</ele>
        <time>2020-01-04T20:12:14Z</time>
      </trkpt>
      <trkpt lat="44.33174" lon="3.59107">
        <ele>547.5078125</ele>
      </trkpt>
      <trkpt lat="44.33196" lon="3.59082">
        <ele>547.7109375</ele>
      </trkpt>
      <trkpt lat="44.33228" lon="3.59049">
        <ele>550.421875</ele>
      </trkpt>
      <trkpt lat="44.33266" lon="3.59031">
        <ele>561.08203125</ele>
      </trkpt>
      <trkpt lat="44.3331" lon="3.59053">
        <ele>581.31640625</ele>
      </trkpt>
      <trkpt lat="44.33317" lon="3.59062">
        <ele>584.09375</ele>
      </trkpt>
      <trkpt lat="44.33363" lon="3.59066">
        <ele>594.08984375</ele>
      </trkpt>
      <trkpt lat="44.33394" lon="3.5907">
        <ele>596.35546875</ele>
      </trkpt>
      <trkpt lat="44.33453" lon="3.59092">
        <ele>597.26171875</ele>
      </trkpt>
      <trkpt lat="44.33473" lon="3.59123">
        <ele>596.53515625</ele>
      </trkpt>
      <trkpt lat="44.33492" lon="3.59146">
        <ele>595</ele>
      </trkpt>
      <trkpt lat="44.33511" lon="3.59197">
        <ele>592.5625</ele>
      </trkpt>
      <trkpt lat="44.33499" lon="3.59279">
        <ele>590.96484375</ele>
      </trkpt>
      <trkpt lat="44.33506" lon="3.59304">
        <ele>589</ele>
      </trkpt>
      <trkpt lat="44.33531" lon="3.59308">
        <ele>582.42578125</ele>
      </trkpt>
      <trkpt lat="44.33572" lon="3.59294">
        <ele>572.28125</ele>
      </trkpt>
      <trkpt lat="44.33619" lon="3.59364">
        <ele>571.16015625</ele>
      </trkpt>
      <trkpt lat="44.33631" lon="3.59401">
        <ele>575.43359375</ele>
      </trkpt>
      <trkpt lat="44.33634" lon="3.59432">
        <ele>580.86328125</ele>
      </trkpt>
      <trkpt lat="44.33651" lon="3.59485">
        <ele>582.53515625</ele>
      </trkpt>
      <trkpt lat="44.33661" lon="3.59549">
        <ele>587.015625</ele>
      </trkpt>
      <trkpt lat="44.33686" lon="3.59598">
        <ele>577.484375</ele>
      </trkpt>
      <trkpt lat="44.33762" lon="3.59672">
        <ele>562.6171875</ele>
      </trkpt>
      <trkpt lat="44.33897" lon="3.59691">
        <ele>555.99609375</ele>
      </trkpt>
      <trkpt lat="44.33959" lon="3.59697">
        <ele>561.02734375</ele>
      </trkpt>
      <trkpt lat="44.34009" lon="3.59701">
        <ele>567.671875</ele>
      </trkpt>
      <trkpt lat="44.34041" lon="3.59682">
        <ele>562.984375</ele>
      </trkpt>
      <trkpt lat="44.34071" lon="3.59682">
        <ele>565.9921875</ele>
      </trkpt>
      <trkpt lat="44.34103" lon="3.59665">
        <ele>558</ele>
        <time>2020-01-04T20:15:34Z</time>
      </trkpt>
    </trkseg>
  </trk>
</gpx>